<?xml version="1.0" encoding="UTF-8" standalone="no" ?>
<gpx xmlns="http://www.topografix.com/GPX/1/1" xmlns:xsi="http://www.w3.org/2001/XMLSchema-instance" xsi:schemaLocation="http://www.topografix.com/GPX/1/1 http://www.topografix.com/GPX/1/1/gpx.xsd" version="1.1" creator="VisuGPX - https://www.visugpx.com">
  <metadata>
    <name>Authume - Moulin de la Foulotière - Sampans -Mont Roland</name>
    <desc><![CDATA[Randonnée effectuée le 27 septembre 2017.
L'indice IBP d'effort est de 40, (suivant l'échelle de la FFRP) un score compris entre 26 et 50 correspond au niveau 2 qualifié de "ASSEZ FACILE". La randonnée pédestre présente peu de difficulté physique. Ce niveau correspond aux promenades et petites randonnées.
]]></desc>
  </metadata>
  <trk>
    <name><![CDATA[OR-7954130--Authume:ùnbfbnp,n,nnb]]></name>
    <trkseg>
      <trkpt lat="47.12653" lon="5.50024">
        <ele>247</ele>
        <time>2017-09-27T13:42:11Z</time>
      </trkpt>
      <trkpt lat="47.12659" lon="5.50035">
        <ele>247</ele>
        <time>2017-09-27T13:44:11Z</time>
      </trkpt>
      <trkpt lat="47.12661" lon="5.50042">
        <ele>247</ele>
        <time>2017-09-27T13:46:11Z</time>
      </trkpt>
      <trkpt lat="47.12675" lon="5.50063">
        <ele>247</ele>
        <time>2017-09-27T13:48:11Z</time>
      </trkpt>
      <trkpt lat="47.12678" lon="5.5007">
        <ele>247</ele>
        <time>2017-09-27T13:50:11Z</time>
      </trkpt>
      <trkpt lat="47.12685" lon="5.50089">
        <ele>247</ele>
        <time>2017-09-27T13:52:11Z</time>
      </trkpt>
      <trkpt lat="47.12689" lon="5.50094">
        <ele>248</ele>
        <time>2017-09-27T13:54:11Z</time>
      </trkpt>
      <trkpt lat="47.12693" lon="5.50097">
        <ele>248</ele>
        <time>2017-09-27T13:56:11Z</time>
      </trkpt>
      <trkpt lat="47.12698" lon="5.50095">
        <ele>248</ele>
        <time>2017-09-27T13:58:11Z</time>
      </trkpt>
      <trkpt lat="47.127" lon="5.50089">
        <ele>248</ele>
        <time>2017-09-27T14:00:11Z</time>
      </trkpt>
      <trkpt lat="47.12699" lon="5.50081">
        <ele>248</ele>
        <time>2017-09-27T14:02:11Z</time>
      </trkpt>
      <trkpt lat="47.12696" lon="5.50086">
        <ele>248</ele>
        <time>2017-09-27T14:04:11Z</time>
      </trkpt>
      <trkpt lat="47.12693" lon="5.50092">
        <ele>248</ele>
        <time>2017-09-27T14:06:11Z</time>
      </trkpt>
      <trkpt lat="47.12688" lon="5.50095">
        <ele>248</ele>
        <time>2017-09-27T14:08:11Z</time>
      </trkpt>
      <trkpt lat="47.12683" lon="5.50093">
        <ele>247</ele>
        <time>2017-09-27T14:10:11Z</time>
      </trkpt>
      <trkpt lat="47.12674" lon="5.50083">
        <ele>247</ele>
        <time>2017-09-27T14:12:11Z</time>
      </trkpt>
      <trkpt lat="47.12669" lon="5.50081">
        <ele>246</ele>
        <time>2017-09-27T14:14:11Z</time>
      </trkpt>
      <trkpt lat="47.12664" lon="5.50077">
        <ele>246</ele>
        <time>2017-09-27T14:16:11Z</time>
      </trkpt>
      <trkpt lat="47.12653" lon="5.50078">
        <ele>246</ele>
        <time>2017-09-27T14:18:11Z</time>
      </trkpt>
      <trkpt lat="47.12649" lon="5.50075">
        <ele>247</ele>
        <time>2017-09-27T14:20:11Z</time>
      </trkpt>
      <trkpt lat="47.12647" lon="5.50067">
        <ele>247</ele>
        <time>2017-09-27T14:22:11Z</time>
      </trkpt>
      <trkpt lat="47.12646" lon="5.50052">
        <ele>247</ele>
        <time>2017-09-27T14:24:11Z</time>
      </trkpt>
      <trkpt lat="47.12634" lon="5.50031">
        <ele>248</ele>
        <time>2017-09-27T14:26:11Z</time>
      </trkpt>
      <trkpt lat="47.12626" lon="5.50021">
        <ele>248</ele>
        <time>2017-09-27T14:28:11Z</time>
      </trkpt>
      <trkpt lat="47.1262" lon="5.50011">
        <ele>248</ele>
        <time>2017-09-27T14:30:11Z</time>
      </trkpt>
      <trkpt lat="47.12615" lon="5.5">
        <ele>249</ele>
        <time>2017-09-27T14:32:11Z</time>
      </trkpt>
      <trkpt lat="47.12612" lon="5.49986">
        <ele>249</ele>
        <time>2017-09-27T14:34:11Z</time>
      </trkpt>
      <trkpt lat="47.1261" lon="5.49943">
        <ele>249</ele>
        <time>2017-09-27T14:36:11Z</time>
      </trkpt>
      <trkpt lat="47.12607" lon="5.4993">
        <ele>249</ele>
        <time>2017-09-27T14:38:11Z</time>
      </trkpt>
      <trkpt lat="47.12614" lon="5.4992">
        <ele>249</ele>
        <time>2017-09-27T14:40:11Z</time>
      </trkpt>
      <trkpt lat="47.12619" lon="5.49908">
        <ele>249</ele>
        <time>2017-09-27T14:42:11Z</time>
      </trkpt>
      <trkpt lat="47.12624" lon="5.49895">
        <ele>250</ele>
        <time>2017-09-27T14:44:11Z</time>
      </trkpt>
      <trkpt lat="47.1263" lon="5.49886">
        <ele>250</ele>
        <time>2017-09-27T14:46:11Z</time>
      </trkpt>
      <trkpt lat="47.12645" lon="5.49848">
        <ele>251</ele>
        <time>2017-09-27T14:48:11Z</time>
      </trkpt>
      <trkpt lat="47.12656" lon="5.49825">
        <ele>252</ele>
        <time>2017-09-27T14:50:11Z</time>
      </trkpt>
      <trkpt lat="47.12665" lon="5.49817">
        <ele>253</ele>
        <time>2017-09-27T14:52:11Z</time>
      </trkpt>
      <trkpt lat="47.12674" lon="5.4982">
        <ele>254</ele>
        <time>2017-09-27T14:54:11Z</time>
      </trkpt>
      <trkpt lat="47.12694" lon="5.49829">
        <ele>256</ele>
        <time>2017-09-27T14:56:11Z</time>
      </trkpt>
      <trkpt lat="47.12698" lon="5.49834">
        <ele>256</ele>
        <time>2017-09-27T14:58:11Z</time>
      </trkpt>
      <trkpt lat="47.12711" lon="5.49846">
        <ele>257</ele>
        <time>2017-09-27T15:00:11Z</time>
      </trkpt>
      <trkpt lat="47.12716" lon="5.49851">
        <ele>258</ele>
        <time>2017-09-27T15:02:11Z</time>
      </trkpt>
      <trkpt lat="47.12723" lon="5.49861">
        <ele>258</ele>
        <time>2017-09-27T15:04:11Z</time>
      </trkpt>
      <trkpt lat="47.12748" lon="5.49881">
        <ele>259</ele>
        <time>2017-09-27T15:06:11Z</time>
      </trkpt>
      <trkpt lat="47.12755" lon="5.49892">
        <ele>259</ele>
        <time>2017-09-27T15:08:11Z</time>
      </trkpt>
      <trkpt lat="47.12764" lon="5.49897">
        <ele>259</ele>
        <time>2017-09-27T15:10:11Z</time>
      </trkpt>
      <trkpt lat="47.12768" lon="5.49901">
        <ele>259</ele>
        <time>2017-09-27T15:12:11Z</time>
      </trkpt>
      <trkpt lat="47.12802" lon="5.49932">
        <ele>260</ele>
        <time>2017-09-27T15:14:11Z</time>
      </trkpt>
      <trkpt lat="47.12811" lon="5.49938">
        <ele>261</ele>
        <time>2017-09-27T15:16:11Z</time>
      </trkpt>
      <trkpt lat="47.12816" lon="5.49942">
        <ele>261</ele>
        <time>2017-09-27T15:18:11Z</time>
      </trkpt>
      <trkpt lat="47.12824" lon="5.49948">
        <ele>262</ele>
        <time>2017-09-27T15:20:11Z</time>
      </trkpt>
      <trkpt lat="47.1283" lon="5.49949">
        <ele>263</ele>
        <time>2017-09-27T15:22:11Z</time>
      </trkpt>
      <trkpt lat="47.1284" lon="5.4995">
        <ele>263</ele>
        <time>2017-09-27T15:24:11Z</time>
      </trkpt>
      <trkpt lat="47.12864" lon="5.49941">
        <ele>266</ele>
        <time>2017-09-27T15:26:11Z</time>
      </trkpt>
      <trkpt lat="47.1287" lon="5.4993">
        <ele>267</ele>
        <time>2017-09-27T15:28:11Z</time>
      </trkpt>
      <trkpt lat="47.12874" lon="5.49916">
        <ele>268</ele>
        <time>2017-09-27T15:30:11Z</time>
      </trkpt>
      <trkpt lat="47.12878" lon="5.49903">
        <ele>269</ele>
        <time>2017-09-27T15:32:11Z</time>
      </trkpt>
      <trkpt lat="47.12879" lon="5.49896">
        <ele>270</ele>
        <time>2017-09-27T15:34:11Z</time>
      </trkpt>
      <trkpt lat="47.12877" lon="5.49881">
        <ele>270</ele>
        <time>2017-09-27T15:36:11Z</time>
      </trkpt>
      <trkpt lat="47.12878" lon="5.49871">
        <ele>271</ele>
        <time>2017-09-27T15:38:11Z</time>
      </trkpt>
      <trkpt lat="47.12876" lon="5.49854">
        <ele>272</ele>
        <time>2017-09-27T15:40:11Z</time>
      </trkpt>
      <trkpt lat="47.12875" lon="5.49811">
        <ele>274</ele>
        <time>2017-09-27T15:42:11Z</time>
      </trkpt>
      <trkpt lat="47.12886" lon="5.49791">
        <ele>275</ele>
        <time>2017-09-27T15:44:11Z</time>
      </trkpt>
      <trkpt lat="47.1291" lon="5.49734">
        <ele>276</ele>
        <time>2017-09-27T15:46:11Z</time>
      </trkpt>
      <trkpt lat="47.1292" lon="5.49717">
        <ele>277</ele>
        <time>2017-09-27T15:48:11Z</time>
      </trkpt>
      <trkpt lat="47.12949" lon="5.49719">
        <ele>275</ele>
        <time>2017-09-27T15:50:11Z</time>
      </trkpt>
      <trkpt lat="47.12993" lon="5.49715">
        <ele>273</ele>
        <time>2017-09-27T15:52:11Z</time>
      </trkpt>
      <trkpt lat="47.13008" lon="5.49704">
        <ele>273</ele>
        <time>2017-09-27T15:54:11Z</time>
      </trkpt>
      <trkpt lat="47.13017" lon="5.49692">
        <ele>273</ele>
        <time>2017-09-27T15:56:11Z</time>
      </trkpt>
      <trkpt lat="47.13032" lon="5.49665">
        <ele>274</ele>
        <time>2017-09-27T15:58:11Z</time>
      </trkpt>
      <trkpt lat="47.13038" lon="5.49629">
        <ele>278</ele>
        <time>2017-09-27T16:00:11Z</time>
      </trkpt>
      <trkpt lat="47.13027" lon="5.49599">
        <ele>280</ele>
        <time>2017-09-27T16:02:11Z</time>
      </trkpt>
      <trkpt lat="47.12997" lon="5.49569">
        <ele>284</ele>
        <time>2017-09-27T16:04:11Z</time>
      </trkpt>
      <trkpt lat="47.12953" lon="5.49521">
        <ele>289</ele>
        <time>2017-09-27T16:06:11Z</time>
      </trkpt>
      <trkpt lat="47.129" lon="5.49478">
        <ele>295</ele>
        <time>2017-09-27T16:08:11Z</time>
      </trkpt>
      <trkpt lat="47.12856" lon="5.49439">
        <ele>299</ele>
        <time>2017-09-27T16:10:11Z</time>
      </trkpt>
      <trkpt lat="47.12846" lon="5.49427">
        <ele>301</ele>
        <time>2017-09-27T16:12:11Z</time>
      </trkpt>
      <trkpt lat="47.12838" lon="5.49421">
        <ele>301</ele>
        <time>2017-09-27T16:14:11Z</time>
      </trkpt>
      <trkpt lat="47.12828" lon="5.4942">
        <ele>302</ele>
        <time>2017-09-27T16:16:11Z</time>
      </trkpt>
      <trkpt lat="47.12839" lon="5.494">
        <ele>303</ele>
        <time>2017-09-27T16:18:11Z</time>
      </trkpt>
      <trkpt lat="47.12864" lon="5.49357">
        <ele>305</ele>
        <time>2017-09-27T16:20:11Z</time>
      </trkpt>
      <trkpt lat="47.12871" lon="5.49348">
        <ele>306</ele>
        <time>2017-09-27T16:22:11Z</time>
      </trkpt>
      <trkpt lat="47.12878" lon="5.49337">
        <ele>307</ele>
        <time>2017-09-27T16:24:11Z</time>
      </trkpt>
      <trkpt lat="47.12882" lon="5.49325">
        <ele>307</ele>
        <time>2017-09-27T16:26:11Z</time>
      </trkpt>
      <trkpt lat="47.12889" lon="5.49318">
        <ele>307</ele>
        <time>2017-09-27T16:28:11Z</time>
      </trkpt>
      <trkpt lat="47.12908" lon="5.49284">
        <ele>306</ele>
        <time>2017-09-27T16:30:11Z</time>
      </trkpt>
      <trkpt lat="47.12916" lon="5.49276">
        <ele>306</ele>
        <time>2017-09-27T16:32:11Z</time>
      </trkpt>
      <trkpt lat="47.12922" lon="5.49264">
        <ele>307</ele>
        <time>2017-09-27T16:34:11Z</time>
      </trkpt>
      <trkpt lat="47.12929" lon="5.49256">
        <ele>307</ele>
        <time>2017-09-27T16:36:11Z</time>
      </trkpt>
      <trkpt lat="47.12934" lon="5.49245">
        <ele>308</ele>
        <time>2017-09-27T16:38:11Z</time>
      </trkpt>
      <trkpt lat="47.12941" lon="5.49236">
        <ele>309</ele>
        <time>2017-09-27T16:40:11Z</time>
      </trkpt>
      <trkpt lat="47.12946" lon="5.49224">
        <ele>311</ele>
        <time>2017-09-27T16:42:11Z</time>
      </trkpt>
      <trkpt lat="47.12955" lon="5.49226">
        <ele>311</ele>
        <time>2017-09-27T16:44:11Z</time>
      </trkpt>
      <trkpt lat="47.12965" lon="5.4923">
        <ele>312</ele>
        <time>2017-09-27T16:46:11Z</time>
      </trkpt>
      <trkpt lat="47.12998" lon="5.49258">
        <ele>312</ele>
        <time>2017-09-27T16:48:11Z</time>
      </trkpt>
      <trkpt lat="47.13007" lon="5.49262">
        <ele>312</ele>
        <time>2017-09-27T16:50:11Z</time>
      </trkpt>
      <trkpt lat="47.13013" lon="5.49273">
        <ele>311</ele>
        <time>2017-09-27T16:52:11Z</time>
      </trkpt>
      <trkpt lat="47.13028" lon="5.4929">
        <ele>310</ele>
        <time>2017-09-27T16:54:11Z</time>
      </trkpt>
      <trkpt lat="47.13042" lon="5.4927">
        <ele>312</ele>
        <time>2017-09-27T16:56:11Z</time>
      </trkpt>
      <trkpt lat="47.1305" lon="5.49264">
        <ele>313</ele>
        <time>2017-09-27T16:58:11Z</time>
      </trkpt>
      <trkpt lat="47.13061" lon="5.49224">
        <ele>316</ele>
        <time>2017-09-27T17:00:11Z</time>
      </trkpt>
      <trkpt lat="47.13066" lon="5.49212">
        <ele>317</ele>
        <time>2017-09-27T17:02:11Z</time>
      </trkpt>
      <trkpt lat="47.13072" lon="5.49201">
        <ele>318</ele>
        <time>2017-09-27T17:04:11Z</time>
      </trkpt>
      <trkpt lat="47.13075" lon="5.49189">
        <ele>319</ele>
        <time>2017-09-27T17:06:11Z</time>
      </trkpt>
      <trkpt lat="47.13082" lon="5.49179">
        <ele>319</ele>
        <time>2017-09-27T17:08:11Z</time>
      </trkpt>
      <trkpt lat="47.13086" lon="5.49166">
        <ele>320</ele>
        <time>2017-09-27T17:10:11Z</time>
      </trkpt>
      <trkpt lat="47.13091" lon="5.49154">
        <ele>320</ele>
        <time>2017-09-27T17:12:11Z</time>
      </trkpt>
      <trkpt lat="47.13094" lon="5.49141">
        <ele>320</ele>
        <time>2017-09-27T17:14:11Z</time>
      </trkpt>
      <trkpt lat="47.13098" lon="5.49129">
        <ele>320</ele>
        <time>2017-09-27T17:16:11Z</time>
      </trkpt>
      <trkpt lat="47.13103" lon="5.49118">
        <ele>321</ele>
        <time>2017-09-27T17:18:11Z</time>
      </trkpt>
      <trkpt lat="47.13107" lon="5.49105">
        <ele>321</ele>
        <time>2017-09-27T17:20:11Z</time>
      </trkpt>
      <trkpt lat="47.13108" lon="5.49091">
        <ele>321</ele>
        <time>2017-09-27T17:22:11Z</time>
      </trkpt>
      <trkpt lat="47.13117" lon="5.49066">
        <ele>322</ele>
        <time>2017-09-27T17:24:11Z</time>
      </trkpt>
      <trkpt lat="47.13131" lon="5.49046">
        <ele>323</ele>
        <time>2017-09-27T17:26:11Z</time>
      </trkpt>
      <trkpt lat="47.13137" lon="5.49018">
        <ele>324</ele>
        <time>2017-09-27T17:28:11Z</time>
      </trkpt>
      <trkpt lat="47.13141" lon="5.49006">
        <ele>325</ele>
        <time>2017-09-27T17:30:11Z</time>
      </trkpt>
      <trkpt lat="47.1315" lon="5.48999">
        <ele>325</ele>
        <time>2017-09-27T17:32:11Z</time>
      </trkpt>
      <trkpt lat="47.13158" lon="5.49008">
        <ele>325</ele>
        <time>2017-09-27T17:34:11Z</time>
      </trkpt>
      <trkpt lat="47.13163" lon="5.4902">
        <ele>324</ele>
        <time>2017-09-27T17:36:11Z</time>
      </trkpt>
      <trkpt lat="47.1317" lon="5.49029">
        <ele>323</ele>
        <time>2017-09-27T17:38:11Z</time>
      </trkpt>
      <trkpt lat="47.13196" lon="5.49048">
        <ele>319</ele>
        <time>2017-09-27T17:40:11Z</time>
      </trkpt>
      <trkpt lat="47.13213" lon="5.49065">
        <ele>316</ele>
        <time>2017-09-27T17:42:11Z</time>
      </trkpt>
      <trkpt lat="47.13217" lon="5.49077">
        <ele>315</ele>
        <time>2017-09-27T17:44:11Z</time>
      </trkpt>
      <trkpt lat="47.13247" lon="5.4909">
        <ele>310</ele>
        <time>2017-09-27T17:46:11Z</time>
      </trkpt>
      <trkpt lat="47.13266" lon="5.49089">
        <ele>308</ele>
        <time>2017-09-27T17:48:11Z</time>
      </trkpt>
      <trkpt lat="47.13274" lon="5.49097">
        <ele>307</ele>
        <time>2017-09-27T17:50:11Z</time>
      </trkpt>
      <trkpt lat="47.13302" lon="5.49104">
        <ele>304</ele>
        <time>2017-09-27T17:52:11Z</time>
      </trkpt>
      <trkpt lat="47.13311" lon="5.49104">
        <ele>303</ele>
        <time>2017-09-27T17:54:11Z</time>
      </trkpt>
      <trkpt lat="47.1333" lon="5.49103">
        <ele>302</ele>
        <time>2017-09-27T17:56:11Z</time>
      </trkpt>
      <trkpt lat="47.1337" lon="5.49098">
        <ele>297</ele>
        <time>2017-09-27T17:58:11Z</time>
      </trkpt>
      <trkpt lat="47.13408" lon="5.49095">
        <ele>292</ele>
        <time>2017-09-27T18:00:11Z</time>
      </trkpt>
      <trkpt lat="47.13429" lon="5.49091">
        <ele>289</ele>
        <time>2017-09-27T18:02:11Z</time>
      </trkpt>
      <trkpt lat="47.13446" lon="5.49102">
        <ele>286</ele>
        <time>2017-09-27T18:04:11Z</time>
      </trkpt>
      <trkpt lat="47.13454" lon="5.49109">
        <ele>284</ele>
        <time>2017-09-27T18:06:11Z</time>
      </trkpt>
      <trkpt lat="47.13477" lon="5.49133">
        <ele>281</ele>
        <time>2017-09-27T18:08:11Z</time>
      </trkpt>
      <trkpt lat="47.13485" lon="5.49142">
        <ele>280</ele>
        <time>2017-09-27T18:10:11Z</time>
      </trkpt>
      <trkpt lat="47.13488" lon="5.49154">
        <ele>279</ele>
        <time>2017-09-27T18:12:11Z</time>
      </trkpt>
      <trkpt lat="47.13495" lon="5.49164">
        <ele>279</ele>
        <time>2017-09-27T18:14:11Z</time>
      </trkpt>
      <trkpt lat="47.13499" lon="5.49177">
        <ele>278</ele>
        <time>2017-09-27T18:16:11Z</time>
      </trkpt>
      <trkpt lat="47.13507" lon="5.49186">
        <ele>277</ele>
        <time>2017-09-27T18:18:11Z</time>
      </trkpt>
      <trkpt lat="47.13513" lon="5.49199">
        <ele>277</ele>
        <time>2017-09-27T18:20:11Z</time>
      </trkpt>
      <trkpt lat="47.13537" lon="5.49217">
        <ele>274</ele>
        <time>2017-09-27T18:22:11Z</time>
      </trkpt>
      <trkpt lat="47.13547" lon="5.4922">
        <ele>272</ele>
        <time>2017-09-27T18:24:11Z</time>
      </trkpt>
      <trkpt lat="47.13556" lon="5.49216">
        <ele>271</ele>
        <time>2017-09-27T18:26:11Z</time>
      </trkpt>
      <trkpt lat="47.13564" lon="5.49208">
        <ele>269</ele>
        <time>2017-09-27T18:28:11Z</time>
      </trkpt>
      <trkpt lat="47.13572" lon="5.49202">
        <ele>268</ele>
        <time>2017-09-27T18:30:11Z</time>
      </trkpt>
      <trkpt lat="47.13579" lon="5.49192">
        <ele>266</ele>
        <time>2017-09-27T18:32:11Z</time>
      </trkpt>
      <trkpt lat="47.13583" lon="5.49179">
        <ele>265</ele>
        <time>2017-09-27T18:34:11Z</time>
      </trkpt>
      <trkpt lat="47.1358" lon="5.49164">
        <ele>264</ele>
        <time>2017-09-27T18:36:11Z</time>
      </trkpt>
      <trkpt lat="47.13577" lon="5.49149">
        <ele>264</ele>
        <time>2017-09-27T18:38:11Z</time>
      </trkpt>
      <trkpt lat="47.13567" lon="5.49096">
        <ele>262</ele>
        <time>2017-09-27T18:40:11Z</time>
      </trkpt>
      <trkpt lat="47.13563" lon="5.49082">
        <ele>263</ele>
        <time>2017-09-27T18:42:11Z</time>
      </trkpt>
      <trkpt lat="47.13545" lon="5.49031">
        <ele>266</ele>
        <time>2017-09-27T18:44:11Z</time>
      </trkpt>
      <trkpt lat="47.13541" lon="5.49018">
        <ele>267</ele>
        <time>2017-09-27T18:46:11Z</time>
      </trkpt>
      <trkpt lat="47.13539" lon="5.49005">
        <ele>268</ele>
        <time>2017-09-27T18:48:11Z</time>
      </trkpt>
      <trkpt lat="47.13526" lon="5.48922">
        <ele>268</ele>
        <time>2017-09-27T18:50:11Z</time>
      </trkpt>
      <trkpt lat="47.13525" lon="5.48908">
        <ele>268</ele>
        <time>2017-09-27T18:52:11Z</time>
      </trkpt>
      <trkpt lat="47.13523" lon="5.48895">
        <ele>267</ele>
        <time>2017-09-27T18:54:11Z</time>
      </trkpt>
      <trkpt lat="47.13517" lon="5.48884">
        <ele>268</ele>
        <time>2017-09-27T18:56:11Z</time>
      </trkpt>
      <trkpt lat="47.13509" lon="5.48858">
        <ele>268</ele>
        <time>2017-09-27T18:58:11Z</time>
      </trkpt>
      <trkpt lat="47.13504" lon="5.48847">
        <ele>269</ele>
        <time>2017-09-27T19:00:11Z</time>
      </trkpt>
      <trkpt lat="47.13489" lon="5.48811">
        <ele>271</ele>
        <time>2017-09-27T19:02:11Z</time>
      </trkpt>
      <trkpt lat="47.13487" lon="5.48798">
        <ele>271</ele>
        <time>2017-09-27T19:04:11Z</time>
      </trkpt>
      <trkpt lat="47.13487" lon="5.48784">
        <ele>270</ele>
        <time>2017-09-27T19:06:11Z</time>
      </trkpt>
      <trkpt lat="47.13487" lon="5.48741">
        <ele>269</ele>
        <time>2017-09-27T19:08:11Z</time>
      </trkpt>
      <trkpt lat="47.13499" lon="5.48689">
        <ele>266</ele>
        <time>2017-09-27T19:10:11Z</time>
      </trkpt>
      <trkpt lat="47.13505" lon="5.48634">
        <ele>263</ele>
        <time>2017-09-27T19:12:11Z</time>
      </trkpt>
      <trkpt lat="47.13504" lon="5.48619">
        <ele>263</ele>
        <time>2017-09-27T19:14:11Z</time>
      </trkpt>
      <trkpt lat="47.13506" lon="5.48605">
        <ele>262</ele>
        <time>2017-09-27T19:16:11Z</time>
      </trkpt>
      <trkpt lat="47.13506" lon="5.48578">
        <ele>261</ele>
        <time>2017-09-27T19:18:11Z</time>
      </trkpt>
      <trkpt lat="47.13511" lon="5.48523">
        <ele>256</ele>
        <time>2017-09-27T19:20:11Z</time>
      </trkpt>
      <trkpt lat="47.13509" lon="5.48509">
        <ele>255</ele>
        <time>2017-09-27T19:22:11Z</time>
      </trkpt>
      <trkpt lat="47.1351" lon="5.48495">
        <ele>254</ele>
        <time>2017-09-27T19:24:11Z</time>
      </trkpt>
      <trkpt lat="47.13508" lon="5.48468">
        <ele>252</ele>
        <time>2017-09-27T19:26:11Z</time>
      </trkpt>
      <trkpt lat="47.13509" lon="5.48455">
        <ele>251</ele>
        <time>2017-09-27T19:28:11Z</time>
      </trkpt>
      <trkpt lat="47.13508" lon="5.4844">
        <ele>250</ele>
        <time>2017-09-27T19:30:11Z</time>
      </trkpt>
      <trkpt lat="47.1351" lon="5.48383">
        <ele>243</ele>
        <time>2017-09-27T19:32:11Z</time>
      </trkpt>
      <trkpt lat="47.13514" lon="5.48342">
        <ele>237</ele>
        <time>2017-09-27T19:34:11Z</time>
      </trkpt>
      <trkpt lat="47.1351" lon="5.48329">
        <ele>237</ele>
        <time>2017-09-27T19:36:11Z</time>
      </trkpt>
      <trkpt lat="47.13512" lon="5.483">
        <ele>236</ele>
        <time>2017-09-27T19:38:11Z</time>
      </trkpt>
      <trkpt lat="47.1351" lon="5.48287">
        <ele>236</ele>
        <time>2017-09-27T19:40:11Z</time>
      </trkpt>
      <trkpt lat="47.13513" lon="5.48229">
        <ele>231</ele>
        <time>2017-09-27T19:42:11Z</time>
      </trkpt>
      <trkpt lat="47.13512" lon="5.482">
        <ele>229</ele>
        <time>2017-09-27T19:44:11Z</time>
      </trkpt>
      <trkpt lat="47.13515" lon="5.48187">
        <ele>227</ele>
        <time>2017-09-27T19:46:11Z</time>
      </trkpt>
      <trkpt lat="47.13512" lon="5.48117">
        <ele>223</ele>
        <time>2017-09-27T19:48:11Z</time>
      </trkpt>
      <trkpt lat="47.13512" lon="5.48104">
        <ele>223</ele>
        <time>2017-09-27T19:50:11Z</time>
      </trkpt>
      <trkpt lat="47.13509" lon="5.4809">
        <ele>222</ele>
        <time>2017-09-27T19:52:11Z</time>
      </trkpt>
      <trkpt lat="47.13508" lon="5.48062">
        <ele>220</ele>
        <time>2017-09-27T19:54:11Z</time>
      </trkpt>
      <trkpt lat="47.13505" lon="5.48049">
        <ele>219</ele>
        <time>2017-09-27T19:56:11Z</time>
      </trkpt>
      <trkpt lat="47.13501" lon="5.48036">
        <ele>218</ele>
        <time>2017-09-27T19:58:11Z</time>
      </trkpt>
      <trkpt lat="47.13482" lon="5.48005">
        <ele>221</ele>
        <time>2017-09-27T20:00:11Z</time>
      </trkpt>
      <trkpt lat="47.13474" lon="5.47974">
        <ele>222</ele>
        <time>2017-09-27T20:02:11Z</time>
      </trkpt>
      <trkpt lat="47.13469" lon="5.47962">
        <ele>223</ele>
        <time>2017-09-27T20:04:11Z</time>
      </trkpt>
      <trkpt lat="47.13454" lon="5.4791">
        <ele>224</ele>
        <time>2017-09-27T20:06:11Z</time>
      </trkpt>
      <trkpt lat="47.13448" lon="5.47893">
        <ele>224</ele>
        <time>2017-09-27T20:08:11Z</time>
      </trkpt>
      <trkpt lat="47.13445" lon="5.47879">
        <ele>224</ele>
        <time>2017-09-27T20:10:11Z</time>
      </trkpt>
      <trkpt lat="47.13433" lon="5.4784">
        <ele>223</ele>
        <time>2017-09-27T20:12:11Z</time>
      </trkpt>
      <trkpt lat="47.13428" lon="5.47828">
        <ele>223</ele>
        <time>2017-09-27T20:14:11Z</time>
      </trkpt>
      <trkpt lat="47.13425" lon="5.47813">
        <ele>222</ele>
        <time>2017-09-27T20:16:11Z</time>
      </trkpt>
      <trkpt lat="47.13415" lon="5.47789">
        <ele>221</ele>
        <time>2017-09-27T20:18:11Z</time>
      </trkpt>
      <trkpt lat="47.13412" lon="5.47776">
        <ele>221</ele>
        <time>2017-09-27T20:20:11Z</time>
      </trkpt>
      <trkpt lat="47.13408" lon="5.47764">
        <ele>222</ele>
        <time>2017-09-27T20:22:11Z</time>
      </trkpt>
      <trkpt lat="47.13397" lon="5.4774">
        <ele>226</ele>
        <time>2017-09-27T20:24:11Z</time>
      </trkpt>
      <trkpt lat="47.13388" lon="5.47734">
        <ele>231</ele>
        <time>2017-09-27T20:26:11Z</time>
      </trkpt>
      <trkpt lat="47.13386" lon="5.4772">
        <ele>231</ele>
        <time>2017-09-27T20:28:11Z</time>
      </trkpt>
      <trkpt lat="47.13395" lon="5.47719">
        <ele>227</ele>
        <time>2017-09-27T20:30:11Z</time>
      </trkpt>
      <trkpt lat="47.13393" lon="5.47733">
        <ele>228</ele>
        <time>2017-09-27T20:32:11Z</time>
      </trkpt>
      <trkpt lat="47.13395" lon="5.47733">
        <ele>227</ele>
        <time>2017-09-27T20:34:11Z</time>
      </trkpt>
      <trkpt lat="47.13394" lon="5.47719">
        <ele>227</ele>
        <time>2017-09-27T20:36:11Z</time>
      </trkpt>
      <trkpt lat="47.13385" lon="5.47707">
        <ele>231</ele>
        <time>2017-09-27T20:38:11Z</time>
      </trkpt>
      <trkpt lat="47.13382" lon="5.47721">
        <ele>233</ele>
        <time>2017-09-27T20:40:11Z</time>
      </trkpt>
      <trkpt lat="47.1338" lon="5.47721">
        <ele>234</ele>
        <time>2017-09-27T20:42:11Z</time>
      </trkpt>
      <trkpt lat="47.13383" lon="5.47728">
        <ele>233</ele>
        <time>2017-09-27T20:44:11Z</time>
      </trkpt>
      <trkpt lat="47.13381" lon="5.47725">
        <ele>234</ele>
        <time>2017-09-27T20:46:11Z</time>
      </trkpt>
      <trkpt lat="47.13387" lon="5.47709">
        <ele>230</ele>
        <time>2017-09-27T20:48:11Z</time>
      </trkpt>
      <trkpt lat="47.13382" lon="5.47682">
        <ele>232</ele>
        <time>2017-09-27T20:50:11Z</time>
      </trkpt>
      <trkpt lat="47.13374" lon="5.47657">
        <ele>234</ele>
        <time>2017-09-27T20:52:11Z</time>
      </trkpt>
      <trkpt lat="47.13373" lon="5.47643">
        <ele>234</ele>
        <time>2017-09-27T20:54:11Z</time>
      </trkpt>
      <trkpt lat="47.1337" lon="5.47637">
        <ele>235</ele>
        <time>2017-09-27T20:56:11Z</time>
      </trkpt>
      <trkpt lat="47.13366" lon="5.47624">
        <ele>235</ele>
        <time>2017-09-27T20:58:11Z</time>
      </trkpt>
      <trkpt lat="47.13357" lon="5.47595">
        <ele>236</ele>
        <time>2017-09-27T21:00:11Z</time>
      </trkpt>
      <trkpt lat="47.13357" lon="5.47588">
        <ele>236</ele>
        <time>2017-09-27T21:02:11Z</time>
      </trkpt>
      <trkpt lat="47.13351" lon="5.47575">
        <ele>237</ele>
        <time>2017-09-27T21:04:11Z</time>
      </trkpt>
      <trkpt lat="47.13348" lon="5.47568">
        <ele>238</ele>
        <time>2017-09-27T21:06:11Z</time>
      </trkpt>
      <trkpt lat="47.13344" lon="5.47547">
        <ele>238</ele>
        <time>2017-09-27T21:08:11Z</time>
      </trkpt>
      <trkpt lat="47.13345" lon="5.47539">
        <ele>238</ele>
        <time>2017-09-27T21:10:11Z</time>
      </trkpt>
      <trkpt lat="47.13348" lon="5.47526">
        <ele>236</ele>
        <time>2017-09-27T21:12:11Z</time>
      </trkpt>
      <trkpt lat="47.1335" lon="5.47512">
        <ele>235</ele>
        <time>2017-09-27T21:14:11Z</time>
      </trkpt>
      <trkpt lat="47.13348" lon="5.47498">
        <ele>235</ele>
        <time>2017-09-27T21:16:11Z</time>
      </trkpt>
      <trkpt lat="47.13349" lon="5.47484">
        <ele>234</ele>
        <time>2017-09-27T21:18:11Z</time>
      </trkpt>
      <trkpt lat="47.13349" lon="5.4747">
        <ele>233</ele>
        <time>2017-09-27T21:20:11Z</time>
      </trkpt>
      <trkpt lat="47.13347" lon="5.47456">
        <ele>233</ele>
        <time>2017-09-27T21:22:11Z</time>
      </trkpt>
      <trkpt lat="47.1335" lon="5.47443">
        <ele>232</ele>
        <time>2017-09-27T21:24:11Z</time>
      </trkpt>
      <trkpt lat="47.13345" lon="5.4743">
        <ele>232</ele>
        <time>2017-09-27T21:26:11Z</time>
      </trkpt>
      <trkpt lat="47.13339" lon="5.4742">
        <ele>232</ele>
        <time>2017-09-27T21:28:11Z</time>
      </trkpt>
      <trkpt lat="47.13316" lon="5.47374">
        <ele>233</ele>
        <time>2017-09-27T21:30:11Z</time>
      </trkpt>
      <trkpt lat="47.13312" lon="5.47362">
        <ele>233</ele>
        <time>2017-09-27T21:32:11Z</time>
      </trkpt>
      <trkpt lat="47.13307" lon="5.47351">
        <ele>233</ele>
        <time>2017-09-27T21:34:11Z</time>
      </trkpt>
      <trkpt lat="47.13301" lon="5.47341">
        <ele>233</ele>
        <time>2017-09-27T21:36:11Z</time>
      </trkpt>
      <trkpt lat="47.13279" lon="5.47295">
        <ele>233</ele>
        <time>2017-09-27T21:38:11Z</time>
      </trkpt>
      <trkpt lat="47.13262" lon="5.47262">
        <ele>232</ele>
        <time>2017-09-27T21:40:11Z</time>
      </trkpt>
      <trkpt lat="47.13258" lon="5.4725">
        <ele>231</ele>
        <time>2017-09-27T21:42:11Z</time>
      </trkpt>
      <trkpt lat="47.13237" lon="5.472">
        <ele>232</ele>
        <time>2017-09-27T21:44:11Z</time>
      </trkpt>
      <trkpt lat="47.13228" lon="5.47181">
        <ele>232</ele>
        <time>2017-09-27T21:46:11Z</time>
      </trkpt>
      <trkpt lat="47.13224" lon="5.47176">
        <ele>233</ele>
        <time>2017-09-27T21:48:11Z</time>
      </trkpt>
      <trkpt lat="47.13216" lon="5.47167">
        <ele>234</ele>
        <time>2017-09-27T21:50:11Z</time>
      </trkpt>
      <trkpt lat="47.1321" lon="5.47156">
        <ele>235</ele>
        <time>2017-09-27T21:52:11Z</time>
      </trkpt>
      <trkpt lat="47.13206" lon="5.47151">
        <ele>236</ele>
        <time>2017-09-27T21:54:11Z</time>
      </trkpt>
      <trkpt lat="47.13202" lon="5.47145">
        <ele>236</ele>
        <time>2017-09-27T21:56:11Z</time>
      </trkpt>
      <trkpt lat="47.1319" lon="5.47112">
        <ele>237</ele>
        <time>2017-09-27T21:58:11Z</time>
      </trkpt>
      <trkpt lat="47.13186" lon="5.47099">
        <ele>237</ele>
        <time>2017-09-27T22:00:11Z</time>
      </trkpt>
      <trkpt lat="47.13173" lon="5.47066">
        <ele>238</ele>
        <time>2017-09-27T22:02:11Z</time>
      </trkpt>
      <trkpt lat="47.1317" lon="5.4706">
        <ele>238</ele>
        <time>2017-09-27T22:04:11Z</time>
      </trkpt>
      <trkpt lat="47.13167" lon="5.47054">
        <ele>238</ele>
        <time>2017-09-27T22:06:11Z</time>
      </trkpt>
      <trkpt lat="47.13157" lon="5.47025">
        <ele>239</ele>
        <time>2017-09-27T22:08:11Z</time>
      </trkpt>
      <trkpt lat="47.1314" lon="5.46971">
        <ele>240</ele>
        <time>2017-09-27T22:10:11Z</time>
      </trkpt>
      <trkpt lat="47.1313" lon="5.46947">
        <ele>240</ele>
        <time>2017-09-27T22:12:11Z</time>
      </trkpt>
      <trkpt lat="47.13125" lon="5.46944">
        <ele>241</ele>
        <time>2017-09-27T22:14:11Z</time>
      </trkpt>
      <trkpt lat="47.13118" lon="5.46925">
        <ele>241</ele>
        <time>2017-09-27T22:16:11Z</time>
      </trkpt>
      <trkpt lat="47.13113" lon="5.46912">
        <ele>241</ele>
        <time>2017-09-27T22:18:11Z</time>
      </trkpt>
      <trkpt lat="47.13104" lon="5.46895">
        <ele>241</ele>
        <time>2017-09-27T22:20:11Z</time>
      </trkpt>
      <trkpt lat="47.13098" lon="5.46884">
        <ele>240</ele>
        <time>2017-09-27T22:22:11Z</time>
      </trkpt>
      <trkpt lat="47.13055" lon="5.46793">
        <ele>242</ele>
        <time>2017-09-27T22:24:11Z</time>
      </trkpt>
      <trkpt lat="47.13047" lon="5.46763">
        <ele>242</ele>
        <time>2017-09-27T22:26:11Z</time>
      </trkpt>
      <trkpt lat="47.13046" lon="5.46756">
        <ele>242</ele>
        <time>2017-09-27T22:28:11Z</time>
      </trkpt>
      <trkpt lat="47.13044" lon="5.46748">
        <ele>242</ele>
        <time>2017-09-27T22:30:11Z</time>
      </trkpt>
      <trkpt lat="47.13041" lon="5.46742">
        <ele>243</ele>
        <time>2017-09-27T22:32:11Z</time>
      </trkpt>
      <trkpt lat="47.13038" lon="5.46736">
        <ele>244</ele>
        <time>2017-09-27T22:34:11Z</time>
      </trkpt>
      <trkpt lat="47.13023" lon="5.4668">
        <ele>245</ele>
        <time>2017-09-27T22:36:11Z</time>
      </trkpt>
      <trkpt lat="47.13011" lon="5.46626">
        <ele>243</ele>
        <time>2017-09-27T22:38:11Z</time>
      </trkpt>
      <trkpt lat="47.12991" lon="5.46567">
        <ele>241</ele>
        <time>2017-09-27T22:40:11Z</time>
      </trkpt>
      <trkpt lat="47.12972" lon="5.46513">
        <ele>241</ele>
        <time>2017-09-27T22:42:11Z</time>
      </trkpt>
      <trkpt lat="47.12965" lon="5.46492">
        <ele>241</ele>
        <time>2017-09-27T22:44:11Z</time>
      </trkpt>
      <trkpt lat="47.12956" lon="5.46475">
        <ele>241</ele>
        <time>2017-09-27T22:46:11Z</time>
      </trkpt>
      <trkpt lat="47.12924" lon="5.46429">
        <ele>240</ele>
        <time>2017-09-27T22:48:11Z</time>
      </trkpt>
      <trkpt lat="47.12909" lon="5.46405">
        <ele>240</ele>
        <time>2017-09-27T22:50:11Z</time>
      </trkpt>
      <trkpt lat="47.12892" lon="5.46376">
        <ele>238</ele>
        <time>2017-09-27T22:52:11Z</time>
      </trkpt>
      <trkpt lat="47.12877" lon="5.46359">
        <ele>238</ele>
        <time>2017-09-27T22:54:11Z</time>
      </trkpt>
      <trkpt lat="47.12865" lon="5.46339">
        <ele>237</ele>
        <time>2017-09-27T22:56:11Z</time>
      </trkpt>
      <trkpt lat="47.12847" lon="5.46313">
        <ele>237</ele>
        <time>2017-09-27T22:58:11Z</time>
      </trkpt>
      <trkpt lat="47.12831" lon="5.46293">
        <ele>237</ele>
        <time>2017-09-27T23:00:11Z</time>
      </trkpt>
      <trkpt lat="47.12819" lon="5.4628">
        <ele>237</ele>
        <time>2017-09-27T23:02:11Z</time>
      </trkpt>
      <trkpt lat="47.12815" lon="5.46276">
        <ele>237</ele>
        <time>2017-09-27T23:04:11Z</time>
      </trkpt>
      <trkpt lat="47.12791" lon="5.46244">
        <ele>237</ele>
        <time>2017-09-27T23:06:11Z</time>
      </trkpt>
      <trkpt lat="47.12788" lon="5.46239">
        <ele>237</ele>
        <time>2017-09-27T23:08:11Z</time>
      </trkpt>
      <trkpt lat="47.1276" lon="5.46205">
        <ele>238</ele>
        <time>2017-09-27T23:10:11Z</time>
      </trkpt>
      <trkpt lat="47.12749" lon="5.46189">
        <ele>238</ele>
        <time>2017-09-27T23:12:11Z</time>
      </trkpt>
      <trkpt lat="47.12745" lon="5.46185">
        <ele>238</ele>
        <time>2017-09-27T23:14:11Z</time>
      </trkpt>
      <trkpt lat="47.1274" lon="5.4618">
        <ele>238</ele>
        <time>2017-09-27T23:16:11Z</time>
      </trkpt>
      <trkpt lat="47.12736" lon="5.46177">
        <ele>238</ele>
        <time>2017-09-27T23:18:11Z</time>
      </trkpt>
      <trkpt lat="47.12735" lon="5.46185">
        <ele>239</ele>
        <time>2017-09-27T23:20:11Z</time>
      </trkpt>
      <trkpt lat="47.12735" lon="5.462">
        <ele>239</ele>
        <time>2017-09-27T23:22:11Z</time>
      </trkpt>
      <trkpt lat="47.12737" lon="5.46214">
        <ele>240</ele>
        <time>2017-09-27T23:24:11Z</time>
      </trkpt>
      <trkpt lat="47.12738" lon="5.46221">
        <ele>240</ele>
        <time>2017-09-27T23:26:11Z</time>
      </trkpt>
      <trkpt lat="47.12738" lon="5.46258">
        <ele>242</ele>
        <time>2017-09-27T23:28:11Z</time>
      </trkpt>
      <trkpt lat="47.12739" lon="5.46272">
        <ele>243</ele>
        <time>2017-09-27T23:30:11Z</time>
      </trkpt>
      <trkpt lat="47.12741" lon="5.46292">
        <ele>245</ele>
        <time>2017-09-27T23:32:11Z</time>
      </trkpt>
      <trkpt lat="47.12745" lon="5.46323">
        <ele>247</ele>
        <time>2017-09-27T23:34:11Z</time>
      </trkpt>
      <trkpt lat="47.12746" lon="5.46344">
        <ele>249</ele>
        <time>2017-09-27T23:36:11Z</time>
      </trkpt>
      <trkpt lat="47.12744" lon="5.4638">
        <ele>254</ele>
        <time>2017-09-27T23:38:11Z</time>
      </trkpt>
      <trkpt lat="47.12747" lon="5.46401">
        <ele>256</ele>
        <time>2017-09-27T23:40:11Z</time>
      </trkpt>
      <trkpt lat="47.12749" lon="5.46408">
        <ele>257</ele>
        <time>2017-09-27T23:42:11Z</time>
      </trkpt>
      <trkpt lat="47.1275" lon="5.46414">
        <ele>258</ele>
        <time>2017-09-27T23:44:11Z</time>
      </trkpt>
      <trkpt lat="47.12755" lon="5.46434">
        <ele>259</ele>
        <time>2017-09-27T23:46:11Z</time>
      </trkpt>
      <trkpt lat="47.12756" lon="5.46442">
        <ele>260</ele>
        <time>2017-09-27T23:48:11Z</time>
      </trkpt>
      <trkpt lat="47.12766" lon="5.4646">
        <ele>261</ele>
        <time>2017-09-27T23:50:11Z</time>
      </trkpt>
      <trkpt lat="47.12768" lon="5.46466">
        <ele>261</ele>
        <time>2017-09-27T23:52:11Z</time>
      </trkpt>
      <trkpt lat="47.12766" lon="5.46473">
        <ele>262</ele>
        <time>2017-09-27T23:54:11Z</time>
      </trkpt>
      <trkpt lat="47.1276" lon="5.46473">
        <ele>263</ele>
        <time>2017-09-27T23:56:11Z</time>
      </trkpt>
      <trkpt lat="47.12727" lon="5.46455">
        <ele>263</ele>
        <time>2017-09-27T23:58:11Z</time>
      </trkpt>
      <trkpt lat="47.12713" lon="5.46452">
        <ele>263</ele>
        <time>2017-09-28T00:00:11Z</time>
      </trkpt>
      <trkpt lat="47.12704" lon="5.46446">
        <ele>262</ele>
        <time>2017-09-28T00:02:11Z</time>
      </trkpt>
      <trkpt lat="47.12696" lon="5.46442">
        <ele>262</ele>
        <time>2017-09-28T00:04:11Z</time>
      </trkpt>
      <trkpt lat="47.12687" lon="5.4644">
        <ele>262</ele>
        <time>2017-09-28T00:06:11Z</time>
      </trkpt>
      <trkpt lat="47.12668" lon="5.46435">
        <ele>262</ele>
        <time>2017-09-28T00:08:11Z</time>
      </trkpt>
      <trkpt lat="47.1266" lon="5.46429">
        <ele>261</ele>
        <time>2017-09-28T00:10:11Z</time>
      </trkpt>
      <trkpt lat="47.1265" lon="5.46425">
        <ele>261</ele>
        <time>2017-09-28T00:12:11Z</time>
      </trkpt>
      <trkpt lat="47.12642" lon="5.46422">
        <ele>261</ele>
        <time>2017-09-28T00:14:11Z</time>
      </trkpt>
      <trkpt lat="47.12633" lon="5.46416">
        <ele>261</ele>
        <time>2017-09-28T00:16:11Z</time>
      </trkpt>
      <trkpt lat="47.12624" lon="5.46413">
        <ele>261</ele>
        <time>2017-09-28T00:18:11Z</time>
      </trkpt>
      <trkpt lat="47.12614" lon="5.46411">
        <ele>262</ele>
        <time>2017-09-28T00:20:11Z</time>
      </trkpt>
      <trkpt lat="47.12605" lon="5.46408">
        <ele>262</ele>
        <time>2017-09-28T00:22:11Z</time>
      </trkpt>
      <trkpt lat="47.12595" lon="5.46406">
        <ele>262</ele>
        <time>2017-09-28T00:24:11Z</time>
      </trkpt>
      <trkpt lat="47.12589" lon="5.46418">
        <ele>264</ele>
        <time>2017-09-28T00:26:11Z</time>
      </trkpt>
      <trkpt lat="47.12592" lon="5.46432">
        <ele>266</ele>
        <time>2017-09-28T00:28:11Z</time>
      </trkpt>
      <trkpt lat="47.12591" lon="5.46446">
        <ele>267</ele>
        <time>2017-09-28T00:30:11Z</time>
      </trkpt>
      <trkpt lat="47.12586" lon="5.46486">
        <ele>273</ele>
        <time>2017-09-28T00:32:11Z</time>
      </trkpt>
      <trkpt lat="47.12583" lon="5.46499">
        <ele>275</ele>
        <time>2017-09-28T00:34:11Z</time>
      </trkpt>
      <trkpt lat="47.12576" lon="5.46508">
        <ele>276</ele>
        <time>2017-09-28T00:36:11Z</time>
      </trkpt>
      <trkpt lat="47.12538" lon="5.46511">
        <ele>276</ele>
        <time>2017-09-28T00:38:11Z</time>
      </trkpt>
      <trkpt lat="47.12519" lon="5.46505">
        <ele>276</ele>
        <time>2017-09-28T00:40:11Z</time>
      </trkpt>
      <trkpt lat="47.12484" lon="5.4648">
        <ele>273</ele>
        <time>2017-09-28T00:42:11Z</time>
      </trkpt>
      <trkpt lat="47.12465" lon="5.46471">
        <ele>272</ele>
        <time>2017-09-28T00:44:11Z</time>
      </trkpt>
      <trkpt lat="47.12464" lon="5.46485">
        <ele>273</ele>
        <time>2017-09-28T00:46:11Z</time>
      </trkpt>
      <trkpt lat="47.12469" lon="5.46511">
        <ele>275</ele>
        <time>2017-09-28T00:48:11Z</time>
      </trkpt>
      <trkpt lat="47.12471" lon="5.46524">
        <ele>276</ele>
        <time>2017-09-28T00:50:11Z</time>
      </trkpt>
      <trkpt lat="47.12473" lon="5.46552">
        <ele>277</ele>
        <time>2017-09-28T00:52:11Z</time>
      </trkpt>
      <trkpt lat="47.12481" lon="5.46577">
        <ele>279</ele>
        <time>2017-09-28T00:54:11Z</time>
      </trkpt>
      <trkpt lat="47.12482" lon="5.4659">
        <ele>280</ele>
        <time>2017-09-28T00:56:11Z</time>
      </trkpt>
      <trkpt lat="47.12485" lon="5.46603">
        <ele>281</ele>
        <time>2017-09-28T00:58:11Z</time>
      </trkpt>
      <trkpt lat="47.12491" lon="5.46615">
        <ele>281</ele>
        <time>2017-09-28T01:00:11Z</time>
      </trkpt>
      <trkpt lat="47.12495" lon="5.46627">
        <ele>282</ele>
        <time>2017-09-28T01:02:11Z</time>
      </trkpt>
      <trkpt lat="47.12499" lon="5.46654">
        <ele>283</ele>
        <time>2017-09-28T01:04:11Z</time>
      </trkpt>
      <trkpt lat="47.12495" lon="5.46682">
        <ele>285</ele>
        <time>2017-09-28T01:06:11Z</time>
      </trkpt>
      <trkpt lat="47.12495" lon="5.4671">
        <ele>287</ele>
        <time>2017-09-28T01:08:11Z</time>
      </trkpt>
      <trkpt lat="47.12491" lon="5.4676">
        <ele>290</ele>
        <time>2017-09-28T01:10:11Z</time>
      </trkpt>
      <trkpt lat="47.12489" lon="5.46798">
        <ele>294</ele>
        <time>2017-09-28T01:12:11Z</time>
      </trkpt>
      <trkpt lat="47.12489" lon="5.46805">
        <ele>295</ele>
        <time>2017-09-28T01:14:11Z</time>
      </trkpt>
      <trkpt lat="47.12489" lon="5.46812">
        <ele>295</ele>
        <time>2017-09-28T01:16:11Z</time>
      </trkpt>
      <trkpt lat="47.12487" lon="5.46849">
        <ele>299</ele>
        <time>2017-09-28T01:18:11Z</time>
      </trkpt>
      <trkpt lat="47.12487" lon="5.46857">
        <ele>300</ele>
        <time>2017-09-28T01:20:11Z</time>
      </trkpt>
      <trkpt lat="47.12489" lon="5.46865">
        <ele>300</ele>
        <time>2017-09-28T01:22:11Z</time>
      </trkpt>
      <trkpt lat="47.12495" lon="5.46915">
        <ele>304</ele>
        <time>2017-09-28T01:24:11Z</time>
      </trkpt>
      <trkpt lat="47.12499" lon="5.46936">
        <ele>306</ele>
        <time>2017-09-28T01:26:11Z</time>
      </trkpt>
      <trkpt lat="47.12508" lon="5.46971">
        <ele>309</ele>
        <time>2017-09-28T01:28:11Z</time>
      </trkpt>
      <trkpt lat="47.1251" lon="5.47015">
        <ele>313</ele>
        <time>2017-09-28T01:30:11Z</time>
      </trkpt>
      <trkpt lat="47.12507" lon="5.47058">
        <ele>317</ele>
        <time>2017-09-28T01:32:11Z</time>
      </trkpt>
      <trkpt lat="47.12507" lon="5.47108">
        <ele>322</ele>
        <time>2017-09-28T01:34:11Z</time>
      </trkpt>
      <trkpt lat="47.12507" lon="5.47137">
        <ele>324</ele>
        <time>2017-09-28T01:36:11Z</time>
      </trkpt>
      <trkpt lat="47.12504" lon="5.47144">
        <ele>324</ele>
        <time>2017-09-28T01:38:11Z</time>
      </trkpt>
      <trkpt lat="47.12505" lon="5.47158">
        <ele>325</ele>
        <time>2017-09-28T01:40:11Z</time>
      </trkpt>
      <trkpt lat="47.12501" lon="5.4721">
        <ele>329</ele>
        <time>2017-09-28T01:42:11Z</time>
      </trkpt>
      <trkpt lat="47.12498" lon="5.47248">
        <ele>332</ele>
        <time>2017-09-28T01:44:11Z</time>
      </trkpt>
      <trkpt lat="47.12498" lon="5.47284">
        <ele>336</ele>
        <time>2017-09-28T01:46:11Z</time>
      </trkpt>
      <trkpt lat="47.12498" lon="5.47299">
        <ele>337</ele>
        <time>2017-09-28T01:48:11Z</time>
      </trkpt>
      <trkpt lat="47.12496" lon="5.47306">
        <ele>338</ele>
        <time>2017-09-28T01:50:11Z</time>
      </trkpt>
      <trkpt lat="47.12498" lon="5.47313">
        <ele>339</ele>
        <time>2017-09-28T01:52:11Z</time>
      </trkpt>
      <trkpt lat="47.125" lon="5.47319">
        <ele>339</ele>
        <time>2017-09-28T01:54:11Z</time>
      </trkpt>
      <trkpt lat="47.12496" lon="5.47357">
        <ele>342</ele>
        <time>2017-09-28T01:56:11Z</time>
      </trkpt>
      <trkpt lat="47.12495" lon="5.47363">
        <ele>343</ele>
        <time>2017-09-28T01:58:11Z</time>
      </trkpt>
      <trkpt lat="47.12493" lon="5.4737">
        <ele>343</ele>
        <time>2017-09-28T02:00:11Z</time>
      </trkpt>
      <trkpt lat="47.1249" lon="5.47384">
        <ele>344</ele>
        <time>2017-09-28T02:02:11Z</time>
      </trkpt>
      <trkpt lat="47.1248" lon="5.4743">
        <ele>345</ele>
        <time>2017-09-28T02:04:11Z</time>
      </trkpt>
      <trkpt lat="47.12475" lon="5.47451">
        <ele>345</ele>
        <time>2017-09-28T02:06:11Z</time>
      </trkpt>
      <trkpt lat="47.12474" lon="5.47458">
        <ele>345</ele>
        <time>2017-09-28T02:08:11Z</time>
      </trkpt>
      <trkpt lat="47.12472" lon="5.47464">
        <ele>344</ele>
        <time>2017-09-28T02:10:11Z</time>
      </trkpt>
      <trkpt lat="47.12467" lon="5.4747">
        <ele>344</ele>
        <time>2017-09-28T02:12:11Z</time>
      </trkpt>
      <trkpt lat="47.12458" lon="5.47476">
        <ele>344</ele>
        <time>2017-09-28T02:14:11Z</time>
      </trkpt>
      <trkpt lat="47.12454" lon="5.47478">
        <ele>344</ele>
        <time>2017-09-28T02:16:11Z</time>
      </trkpt>
      <trkpt lat="47.12438" lon="5.47479">
        <ele>343</ele>
        <time>2017-09-28T02:18:11Z</time>
      </trkpt>
      <trkpt lat="47.12425" lon="5.47488">
        <ele>343</ele>
        <time>2017-09-28T02:20:11Z</time>
      </trkpt>
      <trkpt lat="47.12398" lon="5.47519">
        <ele>339</ele>
        <time>2017-09-28T02:22:11Z</time>
      </trkpt>
      <trkpt lat="47.12385" lon="5.4754">
        <ele>336</ele>
        <time>2017-09-28T02:24:11Z</time>
      </trkpt>
      <trkpt lat="47.12367" lon="5.47548">
        <ele>333</ele>
        <time>2017-09-28T02:26:11Z</time>
      </trkpt>
      <trkpt lat="47.12351" lon="5.47543">
        <ele>332</ele>
        <time>2017-09-28T02:28:11Z</time>
      </trkpt>
      <trkpt lat="47.12346" lon="5.4754">
        <ele>332</ele>
        <time>2017-09-28T02:30:11Z</time>
      </trkpt>
      <trkpt lat="47.12335" lon="5.47537">
        <ele>332</ele>
        <time>2017-09-28T02:32:11Z</time>
      </trkpt>
      <trkpt lat="47.1232" lon="5.4753">
        <ele>331</ele>
        <time>2017-09-28T02:34:11Z</time>
      </trkpt>
      <trkpt lat="47.12315" lon="5.47529">
        <ele>331</ele>
        <time>2017-09-28T02:36:11Z</time>
      </trkpt>
      <trkpt lat="47.12311" lon="5.4753">
        <ele>330</ele>
        <time>2017-09-28T02:38:11Z</time>
      </trkpt>
      <trkpt lat="47.12306" lon="5.47534">
        <ele>329</ele>
        <time>2017-09-28T02:40:11Z</time>
      </trkpt>
      <trkpt lat="47.12297" lon="5.47567">
        <ele>324</ele>
        <time>2017-09-28T02:42:11Z</time>
      </trkpt>
      <trkpt lat="47.12293" lon="5.47571">
        <ele>323</ele>
        <time>2017-09-28T02:44:11Z</time>
      </trkpt>
      <trkpt lat="47.12288" lon="5.47572">
        <ele>322</ele>
        <time>2017-09-28T02:46:11Z</time>
      </trkpt>
      <trkpt lat="47.12283" lon="5.47575">
        <ele>322</ele>
        <time>2017-09-28T02:48:11Z</time>
      </trkpt>
      <trkpt lat="47.1228" lon="5.47579">
        <ele>321</ele>
        <time>2017-09-28T02:50:11Z</time>
      </trkpt>
      <trkpt lat="47.12275" lon="5.47581">
        <ele>320</ele>
        <time>2017-09-28T02:52:11Z</time>
      </trkpt>
      <trkpt lat="47.12271" lon="5.47586">
        <ele>319</ele>
        <time>2017-09-28T02:54:11Z</time>
      </trkpt>
      <trkpt lat="47.12241" lon="5.47606">
        <ele>313</ele>
        <time>2017-09-28T02:56:11Z</time>
      </trkpt>
      <trkpt lat="47.12238" lon="5.47648">
        <ele>307</ele>
        <time>2017-09-28T02:58:11Z</time>
      </trkpt>
      <trkpt lat="47.12235" lon="5.47661">
        <ele>304</ele>
        <time>2017-09-28T03:00:11Z</time>
      </trkpt>
      <trkpt lat="47.12225" lon="5.47664">
        <ele>303</ele>
        <time>2017-09-28T03:02:11Z</time>
      </trkpt>
      <trkpt lat="47.12208" lon="5.47676">
        <ele>300</ele>
        <time>2017-09-28T03:04:11Z</time>
      </trkpt>
      <trkpt lat="47.1219" lon="5.47685">
        <ele>296</ele>
        <time>2017-09-28T03:06:11Z</time>
      </trkpt>
      <trkpt lat="47.12181" lon="5.47682">
        <ele>296</ele>
        <time>2017-09-28T03:08:11Z</time>
      </trkpt>
      <trkpt lat="47.12151" lon="5.4769">
        <ele>292</ele>
        <time>2017-09-28T03:10:11Z</time>
      </trkpt>
      <trkpt lat="47.12128" lon="5.47693">
        <ele>289</ele>
        <time>2017-09-28T03:12:11Z</time>
      </trkpt>
      <trkpt lat="47.1212" lon="5.47699">
        <ele>287</ele>
        <time>2017-09-28T03:14:11Z</time>
      </trkpt>
      <trkpt lat="47.12112" lon="5.47695">
        <ele>287</ele>
        <time>2017-09-28T03:16:11Z</time>
      </trkpt>
      <trkpt lat="47.12102" lon="5.47692">
        <ele>286</ele>
        <time>2017-09-28T03:18:11Z</time>
      </trkpt>
      <trkpt lat="47.12093" lon="5.47695">
        <ele>284</ele>
        <time>2017-09-28T03:20:11Z</time>
      </trkpt>
      <trkpt lat="47.12083" lon="5.47694">
        <ele>283</ele>
        <time>2017-09-28T03:22:11Z</time>
      </trkpt>
      <trkpt lat="47.12073" lon="5.47694">
        <ele>282</ele>
        <time>2017-09-28T03:24:11Z</time>
      </trkpt>
      <trkpt lat="47.12064" lon="5.47698">
        <ele>281</ele>
        <time>2017-09-28T03:26:11Z</time>
      </trkpt>
      <trkpt lat="47.12054" lon="5.47697">
        <ele>280</ele>
        <time>2017-09-28T03:28:11Z</time>
      </trkpt>
      <trkpt lat="47.12045" lon="5.47693">
        <ele>280</ele>
        <time>2017-09-28T03:30:11Z</time>
      </trkpt>
      <trkpt lat="47.12037" lon="5.47696">
        <ele>279</ele>
        <time>2017-09-28T03:32:11Z</time>
      </trkpt>
      <trkpt lat="47.11999" lon="5.47697">
        <ele>275</ele>
        <time>2017-09-28T03:34:11Z</time>
      </trkpt>
      <trkpt lat="47.1199" lon="5.47695">
        <ele>274</ele>
        <time>2017-09-28T03:36:11Z</time>
      </trkpt>
      <trkpt lat="47.11971" lon="5.47697">
        <ele>272</ele>
        <time>2017-09-28T03:38:11Z</time>
      </trkpt>
      <trkpt lat="47.11963" lon="5.47704">
        <ele>271</ele>
        <time>2017-09-28T03:40:11Z</time>
      </trkpt>
      <trkpt lat="47.11949" lon="5.47721">
        <ele>268</ele>
        <time>2017-09-28T03:42:11Z</time>
      </trkpt>
      <trkpt lat="47.11941" lon="5.47714">
        <ele>268</ele>
        <time>2017-09-28T03:44:11Z</time>
      </trkpt>
      <trkpt lat="47.11938" lon="5.47726">
        <ele>266</ele>
        <time>2017-09-28T03:46:11Z</time>
      </trkpt>
      <trkpt lat="47.11932" lon="5.47736">
        <ele>265</ele>
        <time>2017-09-28T03:48:11Z</time>
      </trkpt>
      <trkpt lat="47.11924" lon="5.47744">
        <ele>264</ele>
        <time>2017-09-28T03:50:11Z</time>
      </trkpt>
      <trkpt lat="47.11917" lon="5.47755">
        <ele>263</ele>
        <time>2017-09-28T03:52:11Z</time>
      </trkpt>
      <trkpt lat="47.11888" lon="5.47791">
        <ele>264</ele>
        <time>2017-09-28T03:54:11Z</time>
      </trkpt>
      <trkpt lat="47.1188" lon="5.478">
        <ele>264</ele>
        <time>2017-09-28T03:56:11Z</time>
      </trkpt>
      <trkpt lat="47.11867" lon="5.47807">
        <ele>264</ele>
        <time>2017-09-28T03:58:11Z</time>
      </trkpt>
      <trkpt lat="47.11857" lon="5.47811">
        <ele>264</ele>
        <time>2017-09-28T04:00:11Z</time>
      </trkpt>
      <trkpt lat="47.11848" lon="5.47813">
        <ele>264</ele>
        <time>2017-09-28T04:02:11Z</time>
      </trkpt>
      <trkpt lat="47.11838" lon="5.47816">
        <ele>264</ele>
        <time>2017-09-28T04:04:11Z</time>
      </trkpt>
      <trkpt lat="47.11807" lon="5.47833">
        <ele>265</ele>
        <time>2017-09-28T04:06:11Z</time>
      </trkpt>
      <trkpt lat="47.11802" lon="5.47836">
        <ele>266</ele>
        <time>2017-09-28T04:08:11Z</time>
      </trkpt>
      <trkpt lat="47.11789" lon="5.47844">
        <ele>267</ele>
        <time>2017-09-28T04:10:11Z</time>
      </trkpt>
      <trkpt lat="47.11781" lon="5.47851">
        <ele>267</ele>
        <time>2017-09-28T04:12:11Z</time>
      </trkpt>
      <trkpt lat="47.11776" lon="5.47855">
        <ele>268</ele>
        <time>2017-09-28T04:14:11Z</time>
      </trkpt>
      <trkpt lat="47.11772" lon="5.47858">
        <ele>268</ele>
        <time>2017-09-28T04:16:11Z</time>
      </trkpt>
      <trkpt lat="47.11768" lon="5.47862">
        <ele>269</ele>
        <time>2017-09-28T04:18:11Z</time>
      </trkpt>
      <trkpt lat="47.11759" lon="5.47868">
        <ele>269</ele>
        <time>2017-09-28T04:20:11Z</time>
      </trkpt>
      <trkpt lat="47.1175" lon="5.47873">
        <ele>270</ele>
        <time>2017-09-28T04:22:11Z</time>
      </trkpt>
      <trkpt lat="47.11732" lon="5.47888">
        <ele>271</ele>
        <time>2017-09-28T04:24:11Z</time>
      </trkpt>
      <trkpt lat="47.11729" lon="5.47897">
        <ele>272</ele>
        <time>2017-09-28T04:26:11Z</time>
      </trkpt>
      <trkpt lat="47.11736" lon="5.47905">
        <ele>273</ele>
        <time>2017-09-28T04:28:11Z</time>
      </trkpt>
      <trkpt lat="47.11745" lon="5.47912">
        <ele>274</ele>
        <time>2017-09-28T04:30:11Z</time>
      </trkpt>
      <trkpt lat="47.11755" lon="5.47917">
        <ele>274</ele>
        <time>2017-09-28T04:32:11Z</time>
      </trkpt>
      <trkpt lat="47.11764" lon="5.47914">
        <ele>274</ele>
        <time>2017-09-28T04:34:11Z</time>
      </trkpt>
      <trkpt lat="47.11799" lon="5.47935">
        <ele>276</ele>
        <time>2017-09-28T04:36:11Z</time>
      </trkpt>
      <trkpt lat="47.11808" lon="5.47939">
        <ele>277</ele>
        <time>2017-09-28T04:38:11Z</time>
      </trkpt>
      <trkpt lat="47.11828" lon="5.47943">
        <ele>277</ele>
        <time>2017-09-28T04:40:11Z</time>
      </trkpt>
      <trkpt lat="47.11857" lon="5.47939">
        <ele>275</ele>
        <time>2017-09-28T04:42:11Z</time>
      </trkpt>
      <trkpt lat="47.11881" lon="5.47946">
        <ele>275</ele>
        <time>2017-09-28T04:44:11Z</time>
      </trkpt>
      <trkpt lat="47.11897" lon="5.47953">
        <ele>275</ele>
        <time>2017-09-28T04:46:11Z</time>
      </trkpt>
      <trkpt lat="47.11912" lon="5.47961">
        <ele>275</ele>
        <time>2017-09-28T04:48:11Z</time>
      </trkpt>
      <trkpt lat="47.11943" lon="5.47982">
        <ele>276</ele>
        <time>2017-09-28T04:50:11Z</time>
      </trkpt>
      <trkpt lat="47.11947" lon="5.47986">
        <ele>277</ele>
        <time>2017-09-28T04:52:11Z</time>
      </trkpt>
      <trkpt lat="47.11962" lon="5.47993">
        <ele>277</ele>
        <time>2017-09-28T04:54:11Z</time>
      </trkpt>
      <trkpt lat="47.11967" lon="5.47996">
        <ele>278</ele>
        <time>2017-09-28T04:56:11Z</time>
      </trkpt>
      <trkpt lat="47.1198" lon="5.48008">
        <ele>279</ele>
        <time>2017-09-28T04:58:11Z</time>
      </trkpt>
      <trkpt lat="47.11996" lon="5.48023">
        <ele>280</ele>
        <time>2017-09-28T05:00:11Z</time>
      </trkpt>
      <trkpt lat="47.12004" lon="5.48029">
        <ele>281</ele>
        <time>2017-09-28T05:02:11Z</time>
      </trkpt>
      <trkpt lat="47.12014" lon="5.4803">
        <ele>281</ele>
        <time>2017-09-28T05:04:11Z</time>
      </trkpt>
      <trkpt lat="47.12051" lon="5.48042">
        <ele>283</ele>
        <time>2017-09-28T05:06:11Z</time>
      </trkpt>
      <trkpt lat="47.12071" lon="5.4805">
        <ele>284</ele>
        <time>2017-09-28T05:08:11Z</time>
      </trkpt>
      <trkpt lat="47.12106" lon="5.48071">
        <ele>286</ele>
        <time>2017-09-28T05:10:11Z</time>
      </trkpt>
      <trkpt lat="47.12115" lon="5.48076">
        <ele>286</ele>
        <time>2017-09-28T05:12:11Z</time>
      </trkpt>
      <trkpt lat="47.12124" lon="5.48079">
        <ele>286</ele>
        <time>2017-09-28T05:14:11Z</time>
      </trkpt>
      <trkpt lat="47.12141" lon="5.48089">
        <ele>287</ele>
        <time>2017-09-28T05:16:11Z</time>
      </trkpt>
      <trkpt lat="47.12148" lon="5.48099">
        <ele>287</ele>
        <time>2017-09-28T05:18:11Z</time>
      </trkpt>
      <trkpt lat="47.12175" lon="5.4812">
        <ele>288</ele>
        <time>2017-09-28T05:20:11Z</time>
      </trkpt>
      <trkpt lat="47.12182" lon="5.48129">
        <ele>288</ele>
        <time>2017-09-28T05:22:11Z</time>
      </trkpt>
      <trkpt lat="47.12198" lon="5.4814">
        <ele>288</ele>
        <time>2017-09-28T05:24:11Z</time>
      </trkpt>
      <trkpt lat="47.12206" lon="5.48149">
        <ele>288</ele>
        <time>2017-09-28T05:26:11Z</time>
      </trkpt>
      <trkpt lat="47.12225" lon="5.48149">
        <ele>286</ele>
        <time>2017-09-28T05:28:11Z</time>
      </trkpt>
      <trkpt lat="47.12245" lon="5.48144">
        <ele>284</ele>
        <time>2017-09-28T05:30:11Z</time>
      </trkpt>
      <trkpt lat="47.12253" lon="5.4814">
        <ele>283</ele>
        <time>2017-09-28T05:32:11Z</time>
      </trkpt>
      <trkpt lat="47.12262" lon="5.48137">
        <ele>283</ele>
        <time>2017-09-28T05:34:11Z</time>
      </trkpt>
      <trkpt lat="47.12281" lon="5.48134">
        <ele>284</ele>
        <time>2017-09-28T05:36:11Z</time>
      </trkpt>
      <trkpt lat="47.123" lon="5.48132">
        <ele>284</ele>
        <time>2017-09-28T05:38:11Z</time>
      </trkpt>
      <trkpt lat="47.12324" lon="5.48136">
        <ele>285</ele>
        <time>2017-09-28T05:40:11Z</time>
      </trkpt>
      <trkpt lat="47.12329" lon="5.48136">
        <ele>286</ele>
        <time>2017-09-28T05:42:11Z</time>
      </trkpt>
      <trkpt lat="47.12333" lon="5.48137">
        <ele>286</ele>
        <time>2017-09-28T05:44:11Z</time>
      </trkpt>
      <trkpt lat="47.12338" lon="5.4814">
        <ele>286</ele>
        <time>2017-09-28T05:46:11Z</time>
      </trkpt>
      <trkpt lat="47.12343" lon="5.48142">
        <ele>287</ele>
        <time>2017-09-28T05:48:11Z</time>
      </trkpt>
      <trkpt lat="47.12353" lon="5.48141">
        <ele>287</ele>
        <time>2017-09-28T05:50:11Z</time>
      </trkpt>
      <trkpt lat="47.12363" lon="5.48141">
        <ele>288</ele>
        <time>2017-09-28T05:52:11Z</time>
      </trkpt>
      <trkpt lat="47.12367" lon="5.48145">
        <ele>288</ele>
        <time>2017-09-28T05:54:11Z</time>
      </trkpt>
      <trkpt lat="47.12383" lon="5.48151">
        <ele>289</ele>
        <time>2017-09-28T05:56:11Z</time>
      </trkpt>
      <trkpt lat="47.12401" lon="5.4816">
        <ele>291</ele>
        <time>2017-09-28T05:58:11Z</time>
      </trkpt>
      <trkpt lat="47.1243" lon="5.48165">
        <ele>293</ele>
        <time>2017-09-28T06:00:11Z</time>
      </trkpt>
      <trkpt lat="47.12439" lon="5.48169">
        <ele>293</ele>
        <time>2017-09-28T06:02:11Z</time>
      </trkpt>
      <trkpt lat="47.12448" lon="5.48171">
        <ele>294</ele>
        <time>2017-09-28T06:04:11Z</time>
      </trkpt>
      <trkpt lat="47.12479" lon="5.48174">
        <ele>295</ele>
        <time>2017-09-28T06:06:11Z</time>
      </trkpt>
      <trkpt lat="47.12519" lon="5.48187">
        <ele>299</ele>
        <time>2017-09-28T06:08:11Z</time>
      </trkpt>
      <trkpt lat="47.12524" lon="5.48188">
        <ele>299</ele>
        <time>2017-09-28T06:10:11Z</time>
      </trkpt>
      <trkpt lat="47.12534" lon="5.48191">
        <ele>300</ele>
        <time>2017-09-28T06:12:11Z</time>
      </trkpt>
      <trkpt lat="47.12538" lon="5.48195">
        <ele>301</ele>
        <time>2017-09-28T06:14:11Z</time>
      </trkpt>
      <trkpt lat="47.12542" lon="5.48194">
        <ele>301</ele>
        <time>2017-09-28T06:16:11Z</time>
      </trkpt>
      <trkpt lat="47.12552" lon="5.48194">
        <ele>301</ele>
        <time>2017-09-28T06:18:11Z</time>
      </trkpt>
      <trkpt lat="47.12556" lon="5.48198">
        <ele>302</ele>
        <time>2017-09-28T06:20:11Z</time>
      </trkpt>
      <trkpt lat="47.12566" lon="5.48203">
        <ele>303</ele>
        <time>2017-09-28T06:22:11Z</time>
      </trkpt>
      <trkpt lat="47.12568" lon="5.4821">
        <ele>304</ele>
        <time>2017-09-28T06:24:11Z</time>
      </trkpt>
      <trkpt lat="47.12563" lon="5.48237">
        <ele>306</ele>
        <time>2017-09-28T06:26:11Z</time>
      </trkpt>
      <trkpt lat="47.1256" lon="5.48251">
        <ele>307</ele>
        <time>2017-09-28T06:28:11Z</time>
      </trkpt>
      <trkpt lat="47.1255" lon="5.48275">
        <ele>308</ele>
        <time>2017-09-28T06:30:11Z</time>
      </trkpt>
      <trkpt lat="47.12547" lon="5.48289">
        <ele>309</ele>
        <time>2017-09-28T06:32:11Z</time>
      </trkpt>
      <trkpt lat="47.12545" lon="5.48302">
        <ele>310</ele>
        <time>2017-09-28T06:34:11Z</time>
      </trkpt>
      <trkpt lat="47.12542" lon="5.48332">
        <ele>311</ele>
        <time>2017-09-28T06:36:11Z</time>
      </trkpt>
      <trkpt lat="47.12539" lon="5.48358">
        <ele>313</ele>
        <time>2017-09-28T06:38:11Z</time>
      </trkpt>
      <trkpt lat="47.12533" lon="5.48383">
        <ele>314</ele>
        <time>2017-09-28T06:40:11Z</time>
      </trkpt>
      <trkpt lat="47.1253" lon="5.48396">
        <ele>315</ele>
        <time>2017-09-28T06:42:11Z</time>
      </trkpt>
      <trkpt lat="47.1253" lon="5.4841">
        <ele>316</ele>
        <time>2017-09-28T06:44:11Z</time>
      </trkpt>
      <trkpt lat="47.12524" lon="5.48421">
        <ele>317</ele>
        <time>2017-09-28T06:46:11Z</time>
      </trkpt>
      <trkpt lat="47.12506" lon="5.48469">
        <ele>320</ele>
        <time>2017-09-28T06:48:11Z</time>
      </trkpt>
      <trkpt lat="47.12487" lon="5.485">
        <ele>320</ele>
        <time>2017-09-28T06:50:11Z</time>
      </trkpt>
      <trkpt lat="47.12483" lon="5.48512">
        <ele>321</ele>
        <time>2017-09-28T06:52:11Z</time>
      </trkpt>
      <trkpt lat="47.12473" lon="5.48566">
        <ele>324</ele>
        <time>2017-09-28T06:54:11Z</time>
      </trkpt>
      <trkpt lat="47.12456" lon="5.48599">
        <ele>324</ele>
        <time>2017-09-28T06:56:11Z</time>
      </trkpt>
      <trkpt lat="47.12437" lon="5.48648">
        <ele>325</ele>
        <time>2017-09-28T06:58:11Z</time>
      </trkpt>
      <trkpt lat="47.12433" lon="5.48661">
        <ele>326</ele>
        <time>2017-09-28T07:00:11Z</time>
      </trkpt>
      <trkpt lat="47.12426" lon="5.4867">
        <ele>326</ele>
        <time>2017-09-28T07:02:11Z</time>
      </trkpt>
      <trkpt lat="47.12401" lon="5.48713">
        <ele>328</ele>
        <time>2017-09-28T07:04:11Z</time>
      </trkpt>
      <trkpt lat="47.12393" lon="5.48722">
        <ele>328</ele>
        <time>2017-09-28T07:06:11Z</time>
      </trkpt>
      <trkpt lat="47.12373" lon="5.4877">
        <ele>328</ele>
        <time>2017-09-28T07:08:11Z</time>
      </trkpt>
      <trkpt lat="47.12359" lon="5.48807">
        <ele>327</ele>
        <time>2017-09-28T07:10:11Z</time>
      </trkpt>
      <trkpt lat="47.12352" lon="5.48833">
        <ele>327</ele>
        <time>2017-09-28T07:12:11Z</time>
      </trkpt>
      <trkpt lat="47.12342" lon="5.48857">
        <ele>325</ele>
        <time>2017-09-28T07:14:11Z</time>
      </trkpt>
      <trkpt lat="47.12334" lon="5.48864">
        <ele>324</ele>
        <time>2017-09-28T07:16:11Z</time>
      </trkpt>
      <trkpt lat="47.12326" lon="5.4886">
        <ele>323</ele>
        <time>2017-09-28T07:18:11Z</time>
      </trkpt>
      <trkpt lat="47.12318" lon="5.4886">
        <ele>322</ele>
        <time>2017-09-28T07:20:11Z</time>
      </trkpt>
      <trkpt lat="47.12316" lon="5.48866">
        <ele>321</ele>
        <time>2017-09-28T07:22:11Z</time>
      </trkpt>
      <trkpt lat="47.12323" lon="5.48871">
        <ele>322</ele>
        <time>2017-09-28T07:24:11Z</time>
      </trkpt>
      <trkpt lat="47.12323" lon="5.48886">
        <ele>322</ele>
        <time>2017-09-28T07:26:11Z</time>
      </trkpt>
      <trkpt lat="47.12325" lon="5.48901">
        <ele>321</ele>
        <time>2017-09-28T07:28:11Z</time>
      </trkpt>
      <trkpt lat="47.12329" lon="5.48915">
        <ele>321</ele>
        <time>2017-09-28T07:30:11Z</time>
      </trkpt>
      <trkpt lat="47.1233" lon="5.48938">
        <ele>321</ele>
        <time>2017-09-28T07:32:11Z</time>
      </trkpt>
      <trkpt lat="47.12334" lon="5.48967">
        <ele>321</ele>
        <time>2017-09-28T07:34:11Z</time>
      </trkpt>
      <trkpt lat="47.12335" lon="5.48974">
        <ele>321</ele>
        <time>2017-09-28T07:36:11Z</time>
      </trkpt>
      <trkpt lat="47.12337" lon="5.48981">
        <ele>321</ele>
        <time>2017-09-28T07:38:11Z</time>
      </trkpt>
      <trkpt lat="47.12342" lon="5.49033">
        <ele>320</ele>
        <time>2017-09-28T07:40:11Z</time>
      </trkpt>
      <trkpt lat="47.12347" lon="5.49046">
        <ele>320</ele>
        <time>2017-09-28T07:42:11Z</time>
      </trkpt>
      <trkpt lat="47.12362" lon="5.49069">
        <ele>321</ele>
        <time>2017-09-28T07:44:11Z</time>
      </trkpt>
      <trkpt lat="47.12375" lon="5.4908">
        <ele>322</ele>
        <time>2017-09-28T07:46:11Z</time>
      </trkpt>
      <trkpt lat="47.12379" lon="5.49084">
        <ele>322</ele>
        <time>2017-09-28T07:48:11Z</time>
      </trkpt>
      <trkpt lat="47.12388" lon="5.49092">
        <ele>322</ele>
        <time>2017-09-28T07:50:11Z</time>
      </trkpt>
      <trkpt lat="47.12394" lon="5.49092">
        <ele>323</ele>
        <time>2017-09-28T07:52:11Z</time>
      </trkpt>
      <trkpt lat="47.12398" lon="5.49094">
        <ele>323</ele>
        <time>2017-09-28T07:54:11Z</time>
      </trkpt>
      <trkpt lat="47.12423" lon="5.49122">
        <ele>323</ele>
        <time>2017-09-28T07:56:11Z</time>
      </trkpt>
      <trkpt lat="47.12435" lon="5.49133">
        <ele>323</ele>
        <time>2017-09-28T07:58:11Z</time>
      </trkpt>
      <trkpt lat="47.12439" lon="5.49136">
        <ele>323</ele>
        <time>2017-09-28T08:00:11Z</time>
      </trkpt>
      <trkpt lat="47.12444" lon="5.49143">
        <ele>323</ele>
        <time>2017-09-28T08:02:11Z</time>
      </trkpt>
      <trkpt lat="47.1247" lon="5.4916">
        <ele>323</ele>
        <time>2017-09-28T08:04:11Z</time>
      </trkpt>
      <trkpt lat="47.12479" lon="5.49165">
        <ele>323</ele>
        <time>2017-09-28T08:06:11Z</time>
      </trkpt>
      <trkpt lat="47.12484" lon="5.49167">
        <ele>323</ele>
        <time>2017-09-28T08:08:11Z</time>
      </trkpt>
      <trkpt lat="47.12498" lon="5.49177">
        <ele>322</ele>
        <time>2017-09-28T08:10:11Z</time>
      </trkpt>
      <trkpt lat="47.12507" lon="5.49183">
        <ele>322</ele>
        <time>2017-09-28T08:12:11Z</time>
      </trkpt>
      <trkpt lat="47.12516" lon="5.49188">
        <ele>321</ele>
        <time>2017-09-28T08:14:11Z</time>
      </trkpt>
      <trkpt lat="47.12527" lon="5.4919">
        <ele>321</ele>
        <time>2017-09-28T08:16:11Z</time>
      </trkpt>
      <trkpt lat="47.12536" lon="5.49187">
        <ele>322</ele>
        <time>2017-09-28T08:18:11Z</time>
      </trkpt>
      <trkpt lat="47.12541" lon="5.49183">
        <ele>322</ele>
        <time>2017-09-28T08:20:11Z</time>
      </trkpt>
      <trkpt lat="47.12545" lon="5.49178">
        <ele>323</ele>
        <time>2017-09-28T08:22:11Z</time>
      </trkpt>
      <trkpt lat="47.12549" lon="5.49175">
        <ele>323</ele>
        <time>2017-09-28T08:24:11Z</time>
      </trkpt>
      <trkpt lat="47.12554" lon="5.49174">
        <ele>323</ele>
        <time>2017-09-28T08:26:11Z</time>
      </trkpt>
      <trkpt lat="47.12584" lon="5.49178">
        <ele>323</ele>
        <time>2017-09-28T08:28:11Z</time>
      </trkpt>
      <trkpt lat="47.12598" lon="5.49176">
        <ele>324</ele>
        <time>2017-09-28T08:30:11Z</time>
      </trkpt>
      <trkpt lat="47.12603" lon="5.49176">
        <ele>324</ele>
        <time>2017-09-28T08:32:11Z</time>
      </trkpt>
      <trkpt lat="47.12621" lon="5.49179">
        <ele>324</ele>
        <time>2017-09-28T08:34:11Z</time>
      </trkpt>
      <trkpt lat="47.12638" lon="5.49191">
        <ele>323</ele>
        <time>2017-09-28T08:36:11Z</time>
      </trkpt>
      <trkpt lat="47.1264" lon="5.49198">
        <ele>323</ele>
        <time>2017-09-28T08:38:11Z</time>
      </trkpt>
      <trkpt lat="47.12658" lon="5.49242">
        <ele>318</ele>
        <time>2017-09-28T08:40:11Z</time>
      </trkpt>
      <trkpt lat="47.12663" lon="5.49252">
        <ele>317</ele>
        <time>2017-09-28T08:42:11Z</time>
      </trkpt>
      <trkpt lat="47.12666" lon="5.49259">
        <ele>316</ele>
        <time>2017-09-28T08:44:11Z</time>
      </trkpt>
      <trkpt lat="47.1267" lon="5.49273">
        <ele>315</ele>
        <time>2017-09-28T08:46:11Z</time>
      </trkpt>
      <trkpt lat="47.12675" lon="5.49288">
        <ele>313</ele>
        <time>2017-09-28T08:48:11Z</time>
      </trkpt>
      <trkpt lat="47.12677" lon="5.49295">
        <ele>312</ele>
        <time>2017-09-28T08:50:11Z</time>
      </trkpt>
      <trkpt lat="47.12682" lon="5.49305">
        <ele>311</ele>
        <time>2017-09-28T08:52:11Z</time>
      </trkpt>
      <trkpt lat="47.12691" lon="5.49316">
        <ele>310</ele>
        <time>2017-09-28T08:54:11Z</time>
      </trkpt>
      <trkpt lat="47.12699" lon="5.49323">
        <ele>310</ele>
        <time>2017-09-28T08:56:11Z</time>
      </trkpt>
      <trkpt lat="47.12709" lon="5.4933">
        <ele>309</ele>
        <time>2017-09-28T08:58:11Z</time>
      </trkpt>
      <trkpt lat="47.12714" lon="5.49334">
        <ele>309</ele>
        <time>2017-09-28T09:00:11Z</time>
      </trkpt>
      <trkpt lat="47.12723" lon="5.49339">
        <ele>309</ele>
        <time>2017-09-28T09:02:11Z</time>
      </trkpt>
      <trkpt lat="47.12727" lon="5.49344">
        <ele>308</ele>
        <time>2017-09-28T09:04:11Z</time>
      </trkpt>
      <trkpt lat="47.12751" lon="5.49356">
        <ele>307</ele>
        <time>2017-09-28T09:06:11Z</time>
      </trkpt>
      <trkpt lat="47.12758" lon="5.49366">
        <ele>306</ele>
        <time>2017-09-28T09:08:11Z</time>
      </trkpt>
      <trkpt lat="47.12774" lon="5.49381">
        <ele>304</ele>
        <time>2017-09-28T09:10:11Z</time>
      </trkpt>
      <trkpt lat="47.128" lon="5.49398">
        <ele>303</ele>
        <time>2017-09-28T09:12:11Z</time>
      </trkpt>
      <trkpt lat="47.12809" lon="5.49403">
        <ele>302</ele>
        <time>2017-09-28T09:14:11Z</time>
      </trkpt>
      <trkpt lat="47.12844" lon="5.49427">
        <ele>301</ele>
        <time>2017-09-28T09:16:11Z</time>
      </trkpt>
      <trkpt lat="47.1286" lon="5.49445">
        <ele>299</ele>
        <time>2017-09-28T09:18:11Z</time>
      </trkpt>
      <trkpt lat="47.12887" lon="5.49462">
        <ele>296</ele>
        <time>2017-09-28T09:20:11Z</time>
      </trkpt>
      <trkpt lat="47.12911" lon="5.49484">
        <ele>294</ele>
        <time>2017-09-28T09:22:11Z</time>
      </trkpt>
      <trkpt lat="47.12918" lon="5.49493">
        <ele>293</ele>
        <time>2017-09-28T09:24:11Z</time>
      </trkpt>
      <trkpt lat="47.12927" lon="5.49497">
        <ele>292</ele>
        <time>2017-09-28T09:26:11Z</time>
      </trkpt>
      <trkpt lat="47.12936" lon="5.49501">
        <ele>292</ele>
        <time>2017-09-28T09:28:11Z</time>
      </trkpt>
      <trkpt lat="47.1297" lon="5.49534">
        <ele>288</ele>
        <time>2017-09-28T09:30:11Z</time>
      </trkpt>
      <trkpt lat="47.12998" lon="5.49562">
        <ele>284</ele>
        <time>2017-09-28T09:32:11Z</time>
      </trkpt>
      <trkpt lat="47.13022" lon="5.49586">
        <ele>282</ele>
        <time>2017-09-28T09:34:11Z</time>
      </trkpt>
      <trkpt lat="47.13032" lon="5.49601">
        <ele>280</ele>
        <time>2017-09-28T09:36:11Z</time>
      </trkpt>
      <trkpt lat="47.13041" lon="5.49625">
        <ele>278</ele>
        <time>2017-09-28T09:38:11Z</time>
      </trkpt>
      <trkpt lat="47.13042" lon="5.49632">
        <ele>277</ele>
        <time>2017-09-28T09:40:11Z</time>
      </trkpt>
      <trkpt lat="47.13041" lon="5.49647">
        <ele>276</ele>
        <time>2017-09-28T09:42:11Z</time>
      </trkpt>
      <trkpt lat="47.13028" lon="5.49678">
        <ele>273</ele>
        <time>2017-09-28T09:44:11Z</time>
      </trkpt>
      <trkpt lat="47.13026" lon="5.49685">
        <ele>273</ele>
        <time>2017-09-28T09:46:11Z</time>
      </trkpt>
      <trkpt lat="47.13023" lon="5.4969">
        <ele>273</ele>
        <time>2017-09-28T09:48:11Z</time>
      </trkpt>
      <trkpt lat="47.1302" lon="5.49695">
        <ele>273</ele>
        <time>2017-09-28T09:50:11Z</time>
      </trkpt>
      <trkpt lat="47.13016" lon="5.49701">
        <ele>273</ele>
        <time>2017-09-28T09:52:11Z</time>
      </trkpt>
      <trkpt lat="47.13002" lon="5.49713">
        <ele>273</ele>
        <time>2017-09-28T09:54:11Z</time>
      </trkpt>
      <trkpt lat="47.12988" lon="5.49719">
        <ele>273</ele>
        <time>2017-09-28T09:56:11Z</time>
      </trkpt>
      <trkpt lat="47.12978" lon="5.49718">
        <ele>274</ele>
        <time>2017-09-28T09:58:11Z</time>
      </trkpt>
      <trkpt lat="47.12959" lon="5.49713">
        <ele>275</ele>
        <time>2017-09-28T10:00:11Z</time>
      </trkpt>
      <trkpt lat="47.12949" lon="5.49713">
        <ele>275</ele>
        <time>2017-09-28T10:02:11Z</time>
      </trkpt>
      <trkpt lat="47.1294" lon="5.49716">
        <ele>276</ele>
        <time>2017-09-28T10:04:11Z</time>
      </trkpt>
      <trkpt lat="47.12931" lon="5.49716">
        <ele>276</ele>
        <time>2017-09-28T10:06:11Z</time>
      </trkpt>
      <trkpt lat="47.12925" lon="5.4972">
        <ele>276</ele>
        <time>2017-09-28T10:08:11Z</time>
      </trkpt>
      <trkpt lat="47.12921" lon="5.49724">
        <ele>276</ele>
        <time>2017-09-28T10:10:11Z</time>
      </trkpt>
      <trkpt lat="47.12918" lon="5.4973">
        <ele>276</ele>
        <time>2017-09-28T10:12:11Z</time>
      </trkpt>
      <trkpt lat="47.12919" lon="5.49737">
        <ele>276</ele>
        <time>2017-09-28T10:14:11Z</time>
      </trkpt>
      <trkpt lat="47.12912" lon="5.49738">
        <ele>276</ele>
        <time>2017-09-28T10:16:11Z</time>
      </trkpt>
      <trkpt lat="47.12907" lon="5.49744">
        <ele>276</ele>
        <time>2017-09-28T10:18:11Z</time>
      </trkpt>
      <trkpt lat="47.12904" lon="5.4975">
        <ele>276</ele>
        <time>2017-09-28T10:20:11Z</time>
      </trkpt>
      <trkpt lat="47.12899" lon="5.49761">
        <ele>276</ele>
        <time>2017-09-28T10:22:11Z</time>
      </trkpt>
      <trkpt lat="47.12883" lon="5.4979">
        <ele>275</ele>
        <time>2017-09-28T10:24:11Z</time>
      </trkpt>
      <trkpt lat="47.12875" lon="5.498">
        <ele>274</ele>
        <time>2017-09-28T10:26:11Z</time>
      </trkpt>
      <trkpt lat="47.12872" lon="5.49806">
        <ele>274</ele>
        <time>2017-09-28T10:28:11Z</time>
      </trkpt>
      <trkpt lat="47.12871" lon="5.49821">
        <ele>273</ele>
        <time>2017-09-28T10:30:11Z</time>
      </trkpt>
      <trkpt lat="47.12876" lon="5.4985">
        <ele>272</ele>
        <time>2017-09-28T10:32:11Z</time>
      </trkpt>
      <trkpt lat="47.12875" lon="5.49865">
        <ele>271</ele>
        <time>2017-09-28T10:34:11Z</time>
      </trkpt>
      <trkpt lat="47.12875" lon="5.49875">
        <ele>270</ele>
        <time>2017-09-28T10:36:11Z</time>
      </trkpt>
      <trkpt lat="47.12875" lon="5.49889">
        <ele>270</ele>
        <time>2017-09-28T10:38:11Z</time>
      </trkpt>
      <trkpt lat="47.12877" lon="5.49897">
        <ele>269</ele>
        <time>2017-09-28T10:40:11Z</time>
      </trkpt>
      <trkpt lat="47.12875" lon="5.49912">
        <ele>268</ele>
        <time>2017-09-28T10:42:11Z</time>
      </trkpt>
      <trkpt lat="47.12874" lon="5.49919">
        <ele>268</ele>
        <time>2017-09-28T10:44:11Z</time>
      </trkpt>
      <trkpt lat="47.12864" lon="5.49935">
        <ele>266</ele>
        <time>2017-09-28T10:46:11Z</time>
      </trkpt>
      <trkpt lat="47.12854" lon="5.49943">
        <ele>265</ele>
        <time>2017-09-28T10:48:11Z</time>
      </trkpt>
      <trkpt lat="47.1285" lon="5.49946">
        <ele>264</ele>
        <time>2017-09-28T10:50:11Z</time>
      </trkpt>
      <trkpt lat="47.1284" lon="5.49949">
        <ele>263</ele>
        <time>2017-09-28T10:52:11Z</time>
      </trkpt>
      <trkpt lat="47.12835" lon="5.49949">
        <ele>263</ele>
        <time>2017-09-28T10:54:11Z</time>
      </trkpt>
      <trkpt lat="47.12821" lon="5.49947">
        <ele>262</ele>
        <time>2017-09-28T10:56:11Z</time>
      </trkpt>
      <trkpt lat="47.12813" lon="5.49941">
        <ele>261</ele>
        <time>2017-09-28T10:58:11Z</time>
      </trkpt>
      <trkpt lat="47.12796" lon="5.49925">
        <ele>260</ele>
        <time>2017-09-28T11:00:11Z</time>
      </trkpt>
      <trkpt lat="47.12775" lon="5.49906">
        <ele>259</ele>
        <time>2017-09-28T11:02:11Z</time>
      </trkpt>
      <trkpt lat="47.12753" lon="5.49889">
        <ele>259</ele>
        <time>2017-09-28T11:04:11Z</time>
      </trkpt>
      <trkpt lat="47.12738" lon="5.49871">
        <ele>259</ele>
        <time>2017-09-28T11:06:11Z</time>
      </trkpt>
      <trkpt lat="47.12734" lon="5.49867">
        <ele>259</ele>
        <time>2017-09-28T11:08:11Z</time>
      </trkpt>
      <trkpt lat="47.12712" lon="5.49849">
        <ele>257</ele>
        <time>2017-09-28T11:10:11Z</time>
      </trkpt>
      <trkpt lat="47.12689" lon="5.49825">
        <ele>255</ele>
        <time>2017-09-28T11:12:11Z</time>
      </trkpt>
      <trkpt lat="47.12673" lon="5.49811">
        <ele>255</ele>
        <time>2017-09-28T11:14:11Z</time>
      </trkpt>
      <trkpt lat="47.12663" lon="5.4981">
        <ele>254</ele>
        <time>2017-09-28T11:16:11Z</time>
      </trkpt>
      <trkpt lat="47.12655" lon="5.49816">
        <ele>253</ele>
        <time>2017-09-28T11:18:11Z</time>
      </trkpt>
      <trkpt lat="47.12649" lon="5.49827">
        <ele>252</ele>
        <time>2017-09-28T11:20:11Z</time>
      </trkpt>
      <trkpt lat="47.12646" lon="5.49835">
        <ele>251</ele>
        <time>2017-09-28T11:22:11Z</time>
      </trkpt>
      <trkpt lat="47.12642" lon="5.49842">
        <ele>251</ele>
        <time>2017-09-28T11:24:11Z</time>
      </trkpt>
      <trkpt lat="47.12618" lon="5.4989">
        <ele>250</ele>
        <time>2017-09-28T11:26:11Z</time>
      </trkpt>
      <trkpt lat="47.1261" lon="5.49908">
        <ele>249</ele>
        <time>2017-09-28T11:28:11Z</time>
      </trkpt>
      <trkpt lat="47.12601" lon="5.49933">
        <ele>249</ele>
        <time>2017-09-28T11:30:11Z</time>
      </trkpt>
      <trkpt lat="47.12602" lon="5.4994">
        <ele>249</ele>
        <time>2017-09-28T11:32:11Z</time>
      </trkpt>
      <trkpt lat="47.12604" lon="5.49947">
        <ele>249</ele>
        <time>2017-09-28T11:34:11Z</time>
      </trkpt>
      <trkpt lat="47.12606" lon="5.49954">
        <ele>249</ele>
        <time>2017-09-28T11:36:11Z</time>
      </trkpt>
      <trkpt lat="47.12608" lon="5.49992">
        <ele>249</ele>
        <time>2017-09-28T11:38:11Z</time>
      </trkpt>
      <trkpt lat="47.12614" lon="5.5002">
        <ele>249</ele>
        <time>2017-09-28T11:40:11Z</time>
      </trkpt>
      <trkpt lat="47.12619" lon="5.50021">
        <ele>248</ele>
        <time>2017-09-28T11:42:11Z</time>
      </trkpt>
      <trkpt lat="47.12625" lon="5.5002">
        <ele>248</ele>
        <time>2017-09-28T11:44:11Z</time>
      </trkpt>
      <trkpt lat="47.12634" lon="5.50022">
        <ele>248</ele>
        <time>2017-09-28T11:46:11Z</time>
      </trkpt>
      <trkpt lat="47.12632" lon="5.50016">
        <ele>248</ele>
        <time>2017-09-28T11:48:11Z</time>
      </trkpt>
    </trkseg>
  </trk>
</gpx>